Water and Atmospheric Resources Monitoring Program - , Illinois State Water Survey

Water and Atmospheric Resources Monitoring Program (WARM)

Weather Soil Groundwater Sediment Streamflow Reservoirs

#378 Cache (USGS #3612000)


Instantaneous Suspended Sediment Measurements

Date Time    Gage Ht. Temp Cs Qw Qs Final F
i
n
a
l
     (feet) (C) (mg/l) (cfs) (t/d)  
10/14/1980 14:00    1.60 16 14.00 0.0 True x
10/29/1980 10:25    2.17 52.00 16.5 2.3 True x
11/12/1980 14:45    1.63 12 42.00 1.5 0.2 True x
11/26/1980 09:00    1.90 20.00 7.5 0.4 True x
12/13/1980 10:30    2.50 29.00 30.6 2.4 True x
1/28/1981 11:45    1.81 20.00 5.1 0.3 True x
2/23/1981 12:15    2.66  87.00 38.2 9.0 True x
3/1/1981 14:30    2.70  94.00 40.2 10.2 True x
3/13/1981 09:50    2.33 63.00 22.9 3.9 True x
3/20/1981 10:10    2.18 27.00 16.9 1.2 True x
3/24/1981 14:45    2.06 10 39.00 12.7 1.3 True x
4/3/1981 13:45    2.53 18 74.00 32 6.4 True x
4/4/1981 09:50    2.65 16 100.00 37.8 10.2 True x
4/5/1981 15:10    3.44 17 126.00 83.4 28.4 True x
4/6/1981 08:20    3.28 12 90.00 73.2 17.8 True x
4/7/1981 07:20    3.17 13 94.00 66.4 16.9 True x
4/8/1981 07:25    2.89 16 94.00 50.4 12.8 True x
4/9/1981 07:30    2.67 16 98.00 38.7 10.2 True x
4/10/1981 07:55    2.54 18 95.00 32.5 8.3 True x
4/11/1981 07:55    2.43 19 103.00 27.3 7.6 True x
4/12/1981 14:30    2.30 23 85.00 21.6 5.0 True x
4/13/1981 07:30    2.55 18 114.00 33 10.1 True x
4/14/1981 07:30    2.67 19 110.00 38.7 11.5 True x
4/15/1981 12:40    2.95 18 94.00 53.7 13.6 True x
4/16/1981 12:35    2.53 18 68.00 32 5.9 True x
4/17/1981 09:40    2.40 18 84.00 25.9 5.9 True x
4/18/1981 17:34    2.24 21 73.00 19.2 3.8 True x
4/19/1981 15:15    2.20 20 93.00 17.6 4.4 True x
4/20/1981 07:30    2.70 18 109.00 40.2 11.8 True x
4/21/1981 07:30    2.84 14 109.00 48.2 14.2 True x
4/22/1981 08:10    2.63 17 78.00 36.8 7.7 True x
4/23/1981 07:45    3.95 16 108.00 119.3 34.8 True x
4/24/1981 09:25    2.85 17 93.00 48.6 12.2 True x
4/24/1981 15:30    2.83 16 83.00 47.7 10.7 True x
4/25/1981 10:50    2.53 20 69.00 32 6.0 True x
4/26/1981 14:35    2.29 22 65.00 21.2 3.7 True x
4/27/1981 07:30    2.29 17 80.00 21.2 4.6 True x
4/28/1981 07:25    2.20 19 80.00 17.6 3.8 True x
4/29/1981 07:30    2.10 19 80.00 14 3.0 True x
4/30/1981 10:55    2.00 22 71.00 10.7 2.1 True x
5/1/1981 12:35    1.93 22 57.00 8.4 1.3 True x
5/2/1981 12:55    1.85 22 60.00 6.2 1.0 True x
5/3/1981 19:30    1.80 18 59.00 4.8 0.8 True x
5/4/1981 07:35    1.78 17 79.00 4.4 0.9 True x
5/5/1981 12:40    1.78 20 49.00 4.4 0.6 True x
5/6/1981 07:30    1.80 16 66.00 4.8 0.9 True x
5/7/1981 07:30    1.80 13 80.00 4.8 1.0 True x
5/8/1981 16:05    1.77 20 56.00 4.2 0.6 True x
5/9/1981 18:05    1.83 16 90.00 5.6 1.4 True x
5/10/1981 16:50    8.25 16 2,038.00 552.5 3,037.0 True x
5/11/1981 07:30    6.85 14 250.00 388.1 262.0 True x
5/12/1981 07:30    5.62 12 161.00 261.4 113.6 True x
5/13/1981 07:25    4.20 14 133.00 138 49.6 True x
5/14/1981 07:25    10.32 15 1,762.00 830.1 3,947.0 True x
5/15/1981 07:25    11.83 13 398.00 1091 1,172.0 True x
5/16/1981 16:10    7.35 18 212.00 444.6 254.5 True x
5/17/1981 14:20    7.06 16 189.00 411.5 210.0 True x
5/18/1981 12:25    8.08 16 210.00 531.5 301.3 True x
5/19/1981 12:35    14.24 13 556.00 1597 2,397.0 True x
5/20/1981 12:30    14.72 16 288.00 1716 1,335.0 True x
5/21/1981 12:25    12.20 18 222.00 1160 695.3 True x
5/22/1981 13:40    12.05 18 181.00 1132 553.0 True x
5/23/1981 08:50    11.78 18 140.00 1081 408.8 True x
5/24/1981 20:30    11.53 19 160.00 1035 447.3 True x
5/25/1981 18:10    12.67 22 315.00 1251 1,064.0 True x
5/26/1981 07:25    10.70 19 257.00 889.7 617.4 True x
5/27/1981 07:25    13.75 18 310.00 1479 1,238.0 True x
5/27/1981 16:00    13.21 18 207.00 1360 760.2 True x
5/28/1981 07:30    11.17 20 130.00 971 340.8 True x
5/29/1981 12:30    9.85 24 118.00 763.6 243.3 True x
5/30/1981 15:50    9.60 22 91.00 729 179.1 True x
5/31/1981 15:30    12.95 23 260.00 1307 917.5 True x
6/1/1981 07:25    10.00 20 147.00 784.6 311.4 True x
6/2/1981 07:25    8.45 20 108.00 577.5 168.4 True x
6/3/1981 07:25    7.57 21 100.00 470.2 127.0 True x
6/4/1981 07:30    6.85 21 89.00 388.1 93.3 True x
6/5/1981 12:30    6.25 24 85.00 324.2 74.4 True x
6/6/1981 15:30    13.75 22 460.00 1479 1,836.0 True x
6/7/1981 15:05    12.75 23 184.00 1267 629.4 True x
6/8/1981 07:30    10.03 22 176.00 788.8 374.9 True x
6/9/1981 07:30    8.13 24 133.00 537.6 193.0 True x
6/10/1981 07:30    7.42 24 113.00 452.6 138.1 True x
6/11/1981 12:30    6.32 26 92.00 331.4 82.3 True x
6/12/1981 12:30    5.72 27 88.00 271 64.4 True x
6/13/1981 11:00    9.15 25 439.00 668.3 792.1 True x
6/14/1981 17:40    6.70 27 206.00 371.8 206.8 True x
6/15/1981 07:30    5.88 24 124.00 286.6 96.0 True x
6/16/1981 07:25    4.80 24 96.00 186.8 48.4 True x
6/16/1981 15:20    4.55 24 107.00 165.9 47.9 True x
6/17/1981 07:25    4.25 20 77.00 141.9 29.5 True x
6/17/1981 12:40    4.15 26 87.00 134.2 31.5 True x
6/18/1981 07:30    3.85 20 73.00 111.9 22.0 True x
6/18/1981 14:10    3.75 26 77.00 104.7 21.8 True x
6/19/1981 10:00    3.85 21 227.00 111.9 68.6 True x
6/19/1981 16:10    9.35 23 241.00 695.1 452.3 True x
6/20/1981 09:40    14.95 22 1,136.00 1775 5,444.0 True x
6/20/1981 15:35    13.95 24 1,037.00 1526 4,273.0 True x
6/21/1981 06:45    13.83 23 398.00 1497 1,609.0 True x
6/21/1981 15:35    14.17 23 299.00 1579 1,275.0 True x
6/22/1981 07:30    14.17 23 264.00 1579 1,126.0 True x
6/22/1981 11:40    13.93 23 256.00 1521 1,051.0 True x
6/23/1981 07:35    11.63 21 233.00 1054 662.9 True x
6/23/1981 11:25    11.45 24 229.00 1021 631.3 True x
6/23/1981 14:30    11.43 23 214.00 1017 587.9 True x
6/24/1981 07:30    11.47 22 144.00 1025 398.4 True x
6/24/1981 11:20    11.47 26 140.00 1025 387.3 True x
6/25/1981 07:25    10.92 23 117.00 927.4 293.0 True x
6/25/1981 11:20    10.75 26 111.00 898.2 269.2 True x
6/26/1981 11:25    9.50 26 121.00 715.4 233.7 True x
6/26/1981 16:05    9.30 26 117.00 688.3 217.4 True x
6/27/1981 05:10    8.53 21 121.00 587.6 192.0 True x
6/27/1981 18:50    8.05 21 121.00 527.8 172.4 True x
6/28/1981 10:30    7.80 24 105.00 497.5 141.0 True x
6/28/1981 20:20    6.60 24 105.00 361 102.3 True x
6/29/1981 07:25    6.15 23 105.00 313.9 89.0 True x
6/29/1981 11:40    5.98 27 106.00 296.6 84.9 True x
6/30/1981 07:20    5.27 23 111.00 228.5 68.5 True x
6/30/1981 11:25    5.15 26 101.00 217.6 59.3 True x
7/1/1981 07:25    4.68 23 96.00 176.6 45.8 True x
7/1/1981 11:10    4.50 27 101.00 161.8 44.1 True x
7/2/1981 12:30    4.20 26 84.00 138 31.3 True x
7/2/1981 15:40    4.10 26 83.00 130.4 29.2 True x
7/3/1981 09:30    4.22 24 118.00 139.6 44.5 True x
7/3/1981 17:50    4.11 26 115.00 131.2 40.7 True x
7/4/1981 10:35    3.70 25 79.00 101.1 21.6 True x
7/4/1981 19:45    3.45 23 69.00 84.1 15.7 True x
7/5/1981 12:10    11.80 25 1,003.00 1085 2,938.0 True x
7/5/1981 16:30    11.04 23 748.00 948.2 1,915.0 True x
7/8/1981 18:10    7.05 27 287.00 410.4 318.0 True x
7/9/1981 10:30    7.07 28 243.00 412.6 270.7 True x
7/9/1981 15:10    7.06 27 220.00 411.5 244.4 True x
7/10/1981 14:30    6.58 25 181.00 358.9 175.4 True x
7/10/1981 16:20    6.54 26 168.00 354.6 160.8 True x
7/11/1981 08:25    6.96 25 391.00 400.3 422.6 True x
7/11/1981 18:35    6.60 27 511.00 361 498.1 True x
7/12/1981 08:40    6.20 25 294.00 319 253.2 True x
7/12/1981 20:35    5.80 26 233.00 278.8 175.4 True x
7/13/1981 07:30    5.08 25 143.00 211.3 81.6 True x
7/13/1981 11:25    4.90 28 132.00 195.4 69.6 True x
7/14/1981 07:30    4.15 25 106.00 134.2 38.4 True x
7/14/1981 16:40    3.92 30 92.00 117 29.1 True x
7/15/1981 12:30    3.40 29 90.00 80.8 19.6 True x
7/15/1981 15:10    3.40 30 86.00 80.8 18.8 True x
7/16/1981 07:25    3.18 25 78.00 67 14.1 True x
7/16/1981 11:35    3.20 27 87.00 68.2 16.0 True x
7/17/1981 14:15    2.95 29 94.00 53.7 13.6 True x
7/17/1981 16:30    2.95 29 33.00 53.7 13.5 True x
7/18/1981 09:40    2.82 26 87.00 47.3 11.1 True x
7/18/1981 16:05    2.87 26 156.00 49.5 20.8 True x
7/19/1981 08:45    4.21 25 597.00 138.8 223.7 True x
7/19/1981 16:30    4.96 28 588.00 200.7 318.6 True x
7/20/1981 07:25    5.52 24 743.00 251.9 505.3 True x
7/20/1981 11:45    5.78 29 659.00 276.9 492.6 True x
7/21/1981 07:25    7.57 23 849.00 470.2 1,078.0 True x
7/21/1981 12:30    6.97 27 628.00 401.4 680.7 True x
7/22/1981 11:25    6.07 27 721.00 305.7 595.2 True x
7/22/1981 15:30    6.08 22 861.00 306.8 713.1 True x
7/23/1981 07:30    6.03 23 344.00 301.7 280.2 True x
7/23/1981 11:30    6.06 23 362.00 304.7 297.8 True x
7/24/1981 05:50    7.03 23 320.00 408.2 352.7 True x
7/25/1981 19:15    7.52 25 335.00 464.3 420.0 True x
7/26/1981 12:30    7.11 27 200.00 417.1 225.3 True x
7/26/1981 18:00    7.05 27 209.00 410.4 231.6 True x
7/27/1981 07:45    6.99 25 165.00 403.7 179.8 True x
7/27/1981 13:40    7.02 29 173.00 407 190.1 True x
8/9/1981 16:55    2.76 24 64.00 43.9 7.6 True x
8/14/1981 14:40    2.25 23 66.00 19.6 3.5 True x
8/19/1981 13:30    2.36 22 86.00 24.2 5.6 True x
8/24/1981 12:20    2.20 23 68.00 17.6 3.2 True x
9/4/1981 10:55    2.24 21 71.00 19.2 3.7 True x
9/11/1981 10:55    2.07  53.00 13 1.9 True x
9/18/1981 13:00    1.70 17 41.00 2.8 0.3 True x
9/23/1981 14:40    1.56  26.00 0.7 0.0 True x
10/12/1981 13:45    1.62 15 14.00 1.4 0.1 True x
10/19/1981 11:40    1.60 12 10.00 0.0 True x
10/26/1981 11:20    1.74 11.00 3.6 0.1 True x
11/2/1981 10:50    1.80 15 19.00 4.8 0.2 True x
11/9/1981 12:45    1.80 11 9.00 4.8 0.1 True x
11/16/1981 11:30    1.87 41.00 6.7 0.7 True x
11/30/1981 11:30    2.02 23.00 11.4 0.7 True x
12/7/1981 10:55    2.12 30.00 14.7 1.2 True x
12/14/1981 11:30    1.92 19.00 8.1 0.4 True x
1/4/1982 09:20    8.70 1,069.00 609.4 1,760.0 True x
2/8/1982 11:00    6.99 113.00 403.7 123.2 True x
2/18/1982 09:45    8.04 160.00 525.4 224.1 True x
2/23/1982 11:10    5.74 78.00 273 57.5 True x
3/1/1982 12:00    3.61 31.00 94.8 7.9 True x
3/8/1982 11:30    2.99 17.00 55.9 2.6 True x
3/15/1982 12:45    12.46 933.00 1210 3,050.0 True x
3/23/1982 11:00    8.21 12 136.00 547.5 201.0 True x
3/29/1982 10:45    4.35 39.00 149.8 15.8 True x
4/5/1982 10:15    7.22 11 245.00 429.7 284.3 True x
4/12/1982 11:55    3.82 12 55.00 109.7 16.3 True x
4/19/1982 11:25    7.26 15 171.00 434.2 200.5 True x
4/26/1982 12:00    3.40 16 43.00 80.8 9.4 True x
5/3/1982 10:20    2.73 16 45.00 41.8 5.1 True x
5/10/1982 14:00    6.49 21 141.00 349.2 136.7 True x
5/19/1982 10:25    2.55 21 69.00 33 6.1 True x
5/24/1982 11:50    2.77 21 99.00 43.8 11.7 True x
6/2/1982 12:20    7.17 20 288.00 424 329.7 True x
6/7/1982 10:00    5.60 19 138.00 259.5 96.7 True x
6/25/1982 11:45    2.03 22 68.00 11.7 2.1 True x
6/30/1982 09:15    2.40 23 89.00 26.4 6.3 True x
7/9/1982 11:40    4.30 24 477.00 145.8 187.8 True x
7/16/1982 10:55    2.89 24 79.00 50.3 10.7 True x
7/24/1982 14:00    2.12 26 57.00 14.7 2.3 True x
8/2/1982 10:45    1.75 25 48.00 3.8 0.5 True x
8/9/1982 13:40    2.28 25 49.00 20.8 2.8 True x
8/16/1982 11:30    1.55 23 24.00 0.6 0.0 True x
8/23/1982 14:15    1.45  13.00 0.1 0.0 True x
8/30/1982 10:25    5.91 21 200.00 289.7 156.5 True x
9/20/1982 11:00    1.93 18 33.00 8.4 0.8 True x
9/28/1982 11:00    1.75 16 23.00 3.8 0.2 True x
10/8/1982 10:35    1.58 20 16.00 8.2 0.4 True x
10/18/1982 11:00    2.33 11 34.00 33.9 3.1 True x
10/29/1982 12:05    1.76 11 23.00 13 0.8 True x
11/5/1982 09:30    1.72 15.00 11.8 0.5 True x
11/12/1982 10:40    1.83 10 130.00 15.1 5.3 True x
11/19/1982 12:55    1.97 13.00 19.9 0.7 True x
11/29/1982 10:55    8.80  114.00 707 217.6 True x
12/6/1982 14:00    24.70 12 53.00 6328 905.6 True x
12/20/1982 10:00    5.46 38.00 268.5 27.5 True x
12/29/1982 13:40    22.80 55.00 5295 786.3 True x
1/10/1983 09:20    4.64 20.00 189.4 10.2 True x
1/18/1983 09:30    2.85 13.00 59.6 2.1 True x
1/25/1983 12:45    7.59 54.00 527.5 76.9 True x
2/8/1983 09:30    5.87 24.00 312.4 20.2 True x
2/28/1983 12:40    2.56 9.00 44.5 1.1 True x
3/18/1983 14:45    3.02 10 37.00 69.4 6.9 True x
3/31/1983 12:00    7.83 104.00 561.3 157.6 True x
4/11/1983 09:45    15.70 91.00 2349 577.2 True x
4/22/1983 09:30    7.69 11 41.00 541.4 59.9 True x
4/28/1983 12:15    4.64 18 34.00 189.4 17.4 True x
5/5/1983 10:00    24.18 15 27.00 6036 440.0 True x
5/19/1983 10:00    13.70 17 55.00 1739 258.3 True x
5/25/1983 11:45    14.96 19 54.00 2108 307.3 True x
6/28/1983 11:15    12.14 22 2,609.00 1343 9,459.0 True x
7/22/1983 11:15    2.11 28 38.00 25 2.6 True x
8/26/1983 11:45    1.18  35.00 1.2 0.1 True x
9/12/1983 09:30    1.16  26.00 0.1 True x
9/28/1983 12:15    1.20  34.00 1.4 0.1 True x
10/18/1983 10:25    4.79 13 56.00 258 39.0 True x
10/27/1983 10:45    1.59 11 20.00 11 1.0 True x
11/17/1983 10:15    1.68 11.00 14 0.0 True x
2/1/1984 14:18    1.91 44.00 23 3.0 True x
2/10/1984 14:16    8.25 1,259.00 724 2,462.0 True x
3/9/1984 16:00    8.00 88.00 685 163.0 True x
3/16/1984 14:07    11.38 772.00 1281 2,670.0 True x
3/20/1984 09:30    13.91 435.00 1858 2,182.0 True x
3/29/1984 10:30    13.70 310.00 1809 1,514.0 True x
4/18/1984 11:15    5.60 12 72.00 351 68.0 True x
4/25/1984 09:28    7.00 14 136.00 536 197.0 True x
5/8/1984 09:40    14.49 12 278.00 1996 1,498.0 True x
5/17/1984 12:30    10.67 17 34.00 1139 105.0 True x
5/29/1984 13:57    2.46 20 75.00 53 11.0 True x
6/11/1984 09:12    1.66 24 63.00 13 2.0 True x
7/27/1984 10:30    1.37 25 45.00 1.0 True x
9/11/1984 13:55    3.17 22 273.00 104 77.0 True x
9/24/1984 09:17    3.15 20 385.00 102 106.0 True x
10/16/1984 09:15    4.68 19 197.00 246 131.0 True x
10/22/1984 12:15    9.12 15 255.00 867 597.0 True x
10/30/1984 11:15    8.81 16 119.00 815 262.0 True x
11/13/1984 13:40    6.08 10 50.00 411 55.0 True x
11/19/1984 09:30    11.35 160.00 1274 550.0 True x
11/27/1984 11:15    6.25 88.00 433 103.0 True x
12/14/1984 09:00    12.50 12 347.00 1532 1,435.0 True x
1/3/1985 11:15    13.81  67.00 1835 332.0 True x
1/30/1985 11:00    2.63 12.00 64 2.0 True x
2/25/1985 12:30    17.27 168.00 2908 1,319.0 True x
3/7/1985 15:30    5.91  57.00 390 60.0 True x
3/11/1985 17:01    4.91 11 71.00 271 52.0 True x
3/15/1985 16:56    6.03 11 115.00 405 126.0 True x
3/19/1985 17:23    3.72 11 50.00 151 20.0 True x
3/23/1985 10:19    3.60 11 44.00 140 17.0 True x
3/27/1985 18:00    3.25 14 59.00 110 17.0 True x
3/31/1985 13:23    16.41 421.00 2594 2,949.0 True x
4/4/1985 17:35    13.42  42.00 1745 198.0 True x
4/8/1985 16:39    7.48  131.00 606 214.0 True x
4/12/1985 14:40    4.95  65.00 276 48.0 True x
4/14/1985 18:15    9.29  1,147.00 895 2,772.0 True x
4/18/1985 17:05    7.29  93.00 578 145.0 True x
4/22/1985 16:10    4.32  38.00 209 21.0 True x
4/26/1985 14:50    5.12  160.00 295 127.0 True x
4/29/1985 16:13    7.03  137.00 540 200.0 True x
5/3/1985 18:40    8.58  168.00 777 352.0 True x
5/6/1985 16:03    8.14  92.00 707 176.0 True x
5/11/1985 12:50    4.92  45.00 272 33.0 True x
5/14/1985 14:34    8.20  426.00 716 823.0 True x
5/18/1985 17:22    4.59  85.00 237 54.0 True x
5/22/1985 16:24    12.92  1,525.00 1631 6,716.0 True x
5/26/1985 19:00    8.74  94.00 803 204.0 True x
5/30/1985 18:30    5.97  40.00 397 43.0 True x
6/3/1985 15:36    3.64  36.00 144 14.0 True x
6/8/1985 09:14    4.82  180.00 261 127.0 True x
6/12/1985 19:30    8.83  436.00 818 963.0 True x
6/16/1985 17:27    4.69  106.00 247 71.0 True x
6/20/1985 17:40    5.78  172.00 373 173.0 True x
6/24/1985 16:28    3.66  77.00 145 30.0 True x
6/28/1985 15:40    6.27  787.00 436 926.0 True x
7/2/1985 17:25    3.25  126.00 110 37.0 True x
7/7/1985 15:40    2.20  124.00 38 13.0 True x
7/13/1985 09:20    1.68  100.00 14 4.0 True x
7/27/1985 15:14    1.67  116.00 14 4.0 True x
8/3/1985 08:45    3.23  346.00 109 102.0 True x
8/10/1985 11:44    6.85  470.00 515 653.0 True x
8/16/1985 16:15    11.09  600.00 1219 1,975.0 True x
8/20/1985 15:45    9.45  102.00 923 254.0 True x
8/24/1985 09:45    13.33  892.00 1724 4,152.0 True x
8/31/1985 18:00    6.27  69.00 436 81.0 True x
9/5/1985 16:55    12.66  1,032.00 1569 4,372.0 True x
9/14/1985 07:45    3.05  52.00 95 13.0 True x
9/18/1985 13:00    2.17  55.00 37 5.0 True x
9/24/1985 12:00    1.84  145.00 20 8.0 True x
10/5/1985 13:10    1.38  20.00 11 1.0 True x
10/14/1985 15:15    2.50  83.00 66 15.0 True x
10/15/1985 18:05    4.64  209.00 251 142.0 True x
10/19/1985 12:20    1.67  47.00 22 3.0 True x
10/20/1985 16:20    2.74  78.00 83 17.0 True x
10/23/1985 17:55    8.13  1,611.00 705 3,067.0 True x
10/24/1985 17:00    5.88  170.00 393 180.0 True x
10/28/1985 16:40    2.38  33.00 59 5.0 True x
10/30/1985 16:48    8.43  235.00 753 478.0 True x
10/31/1985 16:55    9.70  274.00 967 715.0 True x
11/2/1985 16:30    8.52  124.00 767 257.0 True x
11/11/1985 11:25    2.98  31.00 100 8.0 True x
11/15/1985 16:20    6.81  112.00 511 155.0 True x
11/17/1985 11:50    7.79  110.00 653 194.0 True x
11/20/1985 17:00    8.88  164.00 826 366.0 True x
11/25/1985 17:45    7.45  49.00 601 80.0 True x
11/26/1985 16:05    10.33  632.00 1078 1,839.0 True x
11/27/1985 15:45    13.48  380.00 1759 1,805.0 True x
11/28/1985 14:30    13.25  190.00 1706 875.0 True x
12/1/1985 15:25    10.82  76.00 1167 239.0 True x
12/10/1985 16:05    4.35  21.00 222 13.0 True x
12/11/1985 16:12    10.18  827.00 1052 2,349.0 True x
12/15/1985 14:45    6.53  44.00 474 56.0 True x
12/24/1985 13:00    3.46  20.00 139 7.0 True x
12/29/1985 16:10    2.63  18.00 75 4.0 True x
1/5/1986 16:48    2.35  19.00 57 3.0 True x
1/12/1986 15:30    2.03  9.00 39 1.0 True x
1/19/1986 16:30    3.80  126.00 169 57.0 True x
1/26/1986 14:50    2.62  18.00 74 4.0 True x
2/1/1986 15:05    2.25  5.00 51 1.0 True x
2/2/1986 16:45    2.45  85.00 63 14.0 True x
2/3/1986 15:50    13.46  2,342.00 1754 11,091.0 True x
2/4/1986 16:00    13.67  546.00 1802 2,657.0 True x
2/8/1986 10:29    9.88  140.00 999 378.0 True x
2/15/1986 13:31    4.49  42.00 236 27.0 True x
2/17/1986 17:54    6.63  98.00 487 129.0 True x
2/23/1986 16:20    3.57  34.00 148 14.0 True x
3/2/1986 16:06    2.67  20.00 78 4.0 True x
3/9/1986 15:45    2.39  15.00 59 2.0 True x
3/13/1986 16:58    9.92  415.00 1006 1,127.0 True x
3/16/1986 16:45    7.25  165.00 572 255.0 True x
3/23/1986 18:00    4.08  38.00 195 20.0 True x
3/30/1986 17:00    2.67  44.00 78 9.0 True x
4/5/1986 15:30    2.63  61.00 75 12.0 True x
4/13/1986 17:05    2.55  52.00 70 10.0 True x
4/20/1986 16:50    3.11  70.00 110 21.0 True x
4/21/1986 15:45    5.76  203.00 378 207.0 True x
4/22/1986 17:10    6.10  152.00 420 172.0 True x
4/28/1986 18:11    3.75  109.00 164 48.0 True x
4/29/1986 15:45    3.45  133.00 138 50.0 True x
5/4/1986 18:25    2.11  56.00 44 7.0 True x
5/11/1986 15:50    1.71  52.00 24 3.0 True x
5/14/1986 16:50    1.81  43.00 28 3.0 True x
5/15/1986 14:05    10.45  1,899.00 1100 5,640.0 True x
5/16/1986 10:45    16.69 19 672.00 2691 4,883.0 True x
5/17/1986 07:15    19.44  291.00 3729 2,930.0 True x
5/17/1986 16:25    20.13  185.00 4019 2,007.0 True x
5/18/1986 07:25    21.29  134.00 4538 1,642.0 True x
5/18/1986 17:50    21.69  134.00 4733 1,712.0 True x
5/20/1986 15:02    16.40 19 156.00 2588 1,090.0 True x
5/21/1986 13:38    13.75 18 154.00 1821 757.0 True x
5/24/1986 09:05    7.20  118.00 565 180.0 True x
5/25/1986 14:55    8.46  213.00 758 436.0 True x
5/26/1986 09:20    12.60  953.00 1555 4,001.0 True x
5/26/1986 18:55    12.44  422.00 1518 1,730.0 True x
6/1/1986 18:30    4.55  85.00 242 56.0 True x
6/5/1986 18:15    5.57  133.00 355 127.0 True x
6/7/1986 10:30    5.35  233.00 329 207.0 True x
6/10/1986 07:30    6.67 24 159.00 492 211.0 True x
6/10/1986 13:53    6.27 25 166.00 441 198.0 True x
6/15/1986 16:55    2.53  58.00 68 11.0 True x
6/22/1986 16:25    1.69 31 33.00 23 2.0 True x
6/27/1986 11:03    1.45 26 43.00 13 2.0 True x
6/29/1986 16:55    1.42 31 28.00 12 1.0 True x
7/13/1986 16:17    1.40 30 43.00 12 1.0 True x
7/15/1986 09:40    3.27 26 267.00 123 89.0 True x
7/23/1986 14:49    1.37 29 75.00 11 2.0 True x
7/27/1986 11:45    1.27 29 92.00 2.0 True x
8/3/1986 16:10    1.13  29.00 0.0 True x
8/7/1986 14:39    1.26 25 453.00 10.0 True x
8/8/1986 09:30    1.29 25 49.00 1.0 True x
8/10/1986 16:15    6.46 25 1,381.00 465 1,734.0 True x
8/12/1986 11:22    5.37 24 324.00 332 290.0 True x
8/12/1986 11:43    5.35  313.00 329 278.0 True x
8/19/1986 17:50    12.02 26 85.00 1422 326.0 True x
8/24/1986 16:40    1.25 28 46.00 1.0 True x
8/28/1986 14:09    1.13 24 51.00 1.0 True x
8/31/1986 15:15    1.09 25 30.00 0.0 True x
9/4/1986 11:56    1.14 24 38.00 1.0 True x
9/7/1986 17:50    1.03 20 22.00 0.0 True x
9/11/1986 11:47    1.01 23 21.00 0.0 True x
9/18/1986 16:40    1.29 21 92.00 2.0 True x
9/19/1986 16:25    4.42 23 298.00 229 184.0 True x
9/20/1986 17:45    3.73 24 220.00 163 97.0 True x
9/23/1986 18:40    1.67 24 281.00 22 17.0 True x
9/24/1986 18:30    2.59 25 181.00 72 35.0 True x
9/26/1986 12:54    3.57 24 183.00 148 73.0 True x
9/28/1986 15:45    1.78 28 68.00 27 5.0 True x
10/1/1986 13:01    1.47 23 78.00 14.2 3.0 True x
10/1/1986 16:50    1.50 25 103.00 15.2 4.3 True x
10/2/1986 21:50    2.21  109.00 49.1 14.6 True x
10/3/1986 15:09    4.50 24 339.00 236.8 217.0 True x
10/3/1986 18:15    4.87 24 406.00 275.7 302.4 True x
10/5/1986 07:15    5.24 21 202.00 316.8 173.4 True x
10/12/1986 12:00    1.40 19 62.00 11.9 2.0 True x
10/13/1986 18:00    1.43 16 53.00 12.8 1.8 True x
10/14/1986 17:00    1.51 16 47.00 15.6 2.0 True x
10/19/1986 15:15    1.37 18 28.00 11 0.8 True x
10/23/1986 13:53    1.07 15 31.00 0.3 True x
10/24/1986 15:16    1.13 16 33.00 3.4 0.3 True x
10/25/1986 07:35    1.24 16 48.00 7.4 1.0 True x
10/26/1986 15:55    3.62 16 130.00 152.7 53.8 True x
10/30/1986 13:40    1.66 15 46.00 21.3 2.7 True x
11/3/1986 12:50    1.32 16 32.00 9.5 0.8 True x
11/5/1986 06:37    1.49 14 43.00 14.9 1.7 True x
11/8/1986 06:45    2.60 12 61.00 73 12.0 True x
11/9/1986 06:38    2.33 11 43.00 56 6.5 True x
11/11/1986 06:35    2.00 30.00 38 3.1 True x
11/12/1986 14:01    1.83 21.00 29.1 1.7 True x
11/16/1986 15:45    1.65 15.00 20.9 0.9 True x
11/23/1986 15:35    1.58 13.00 18.1 0.7 True x
11/26/1986 06:40    3.18 70.00 115.8 22.1 True x
11/26/1986 15:15    3.24 100.00 120.6 32.8 True x
11/27/1986 08:05    2.97 62.00 99.7 16.8 True x
11/30/1986 11:50    2.30 36.00 54.2 5.4 True x
12/1/1986 16:17    5.50 385.00 347 361.0 True x
12/2/1986 06:35    8.05 382.00 692.8 714.9 True x
12/2/1986 15:22    7.11 217.00 551.7 323.9 True x
12/2/1986 16:05    7.04 224.00 541.7 328.7 True x
12/3/1986 16:27    6.50 145.00 470.4 185.3 True x
12/8/1986 06:37    3.13 23.00 111.9 7.2 True x
12/9/1986 06:15    2.96 35.00 98.9 9.4 True x
12/9/1986 15:50    3.75 55.00 164.4 24.6 True x
12/14/1986 16:55    2.55 24.00 69.7 4.6 True x
12/16/1986 13:17    2.29 20.00 53.7 3.0 True x
12/22/1986 16:20    1.93 13.00 34.2 1.2 True x
12/23/1986 12:58    1.90 9.00 32.6 0.8 True x
12/24/1986 15:00    2.78 24.00 85.5 5.7 True x
12/28/1986 14:20    2.69 31.00 79.2 6.8 True x
1/4/1987 15:12    2.04 11.00 40 1.2 True x
1/14/1987 13:40    2.09 8.00 42.6 1.0 True x
1/18/1987 15:10    2.06 15.00 41 1.7 True x
1/25/1987 15:30    2.07  13.00 41.6 1.5 True x
1/29/1987 16:04    1.82 9.00 28.6 0.7 True x
2/2/1987 05:55    2.68 50.00 78.5 10.7 True x
2/8/1987 14:10    2.36 28.00 57.8 4.5 True x
2/12/1987 14:23    2.00 11.00 38 1.2 True x
2/15/1987 14:40    2.26  35.00 51.9 5.0 True x
2/18/1987 15:25    4.47  76.00 233.7 48.0 True x
2/19/1987 14:32    3.78 44.00 200.4 24.3 True x
2/22/1987 15:25    3.84  41.00 206.5 23.3 True x
2/26/1987 13:27    2.65 40.00 97.1 10.5 True x
2/27/1987 07:45    2.80  42.00 110.1 12.6 True x
2/28/1987 14:12    12.20  2,279.00 1730.7 10,651.1 True x
3/1/1987 15:40    12.55  465.00 1821 2,289.4 True x
3/15/1987 15:50    2.45  33.00 80.1 7.2 True x
3/19/1987 15:50    7.46  261.00 713.1 504.1 True x
3/23/1987 06:00    6.22  109.00 512.5 152.0 True x
3/24/1987 17:40    4.85  82.00 322 72.1 True x
3/29/1987 15:50    2.67  50.00 98.9 13.5 True x
3/30/1987 06:05    3.30  78.00 154.5 32.8 True x
3/30/1987 16:00    4.47  104.00 275.9 77.8 True x
3/31/1987 06:05    5.00  109.00 341 101.0 True x
4/2/1987 06:05    3.89  56.00 211.6 32.4 True x
4/2/1987 14:42    4.11 10 62.00 235 39.4 True x
4/4/1987 09:10    4.02  64.00 225.2 39.0 True x
4/9/1987 14:07    2.59 14 44.00 92 11.2 True x
4/11/1987 07:30    2.61  45.00 93.7 11.5 True x
4/14/1987 06:12    6.82  725.00 605.9 1,186.5 True x
4/14/1987 16:50    8.69  507.00 936.7 1,282.5 True x
4/15/1987 06:30    8.01  218.00 809.8 477.4 True x
4/15/1987 16:00    7.49  225.00 718.3 437.9 True x
4/16/1987 06:35    7.55  166.00 728.6 327.5 True x
4/16/1987 17:15    7.57  151.00 732.1 299.2 True x
4/17/1987 11:50    7.12 14 144.00 655.2 255.5 True x
4/19/1987 15:45    5.82  113.00 453.5 138.9 True x
4/28/1987 06:15    2.17  47.00 57.7 7.4 True x
5/3/1987 14:20    1.83  56.00 35 5.3 True x
5/4/1987 06:20    1.90  92.00 38.9 9.8 True x
5/7/1987 15:27    1.81  56.00 33.9 5.2 True x
5/9/1987 16:00    1.73  58.00 29.7 4.7 True x
5/14/1987 13:56    2.44 23 101.00 79.2 21.6 True x
5/17/1987 17:30    1.63  52.00 25 3.5 True x
5/21/1987 13:47    1.50 27 48.00 19 2.5 True x
5/24/1987 14:50    1.40  54.00 15 2.2 True x
5/25/1987 11:33    1.52  76.00 19.9 4.1 True x
5/28/1987 14:27    1.63  63.00 25 4.3 True x
5/30/1987 17:15    1.39  61.00 14.6 2.4 True x
6/1/1987 06:20    1.35  65.00 13.2 2.3 True x
6/3/1987 06:25    2.22  160.00 61.4 26.7 True x
6/4/1987 14:05    1.77  154.00 31.8 13.3 True x
6/8/1987 06:35    1.32  78.00 12.2 2.6 True x
6/11/1987 14:40    1.15  44.00 7.3 0.9 True x
6/15/1987 16:30    4.86  543.00 323.3 474.8 True x
6/16/1987 06:45    2.65  327.00 97.1 86.0 True x
6/17/1987 06:10    2.38  154.00 74.1 30.9 True x
6/19/1987 06:10    6.95  2,029.00 627.1 3,435.5 True x
6/20/1987 06:55    4.19  553.00 243.8 364.2 True x
6/20/1987 17:35    3.50  544.00 173 254.2 True x
6/21/1987 06:20    2.67  306.00 98.9 81.8 True x
6/21/1987 17:30    2.29  140.00 66.8 25.4 True x
6/24/1987 13:29    1.58 28 89.00 22.6 5.5 True x
6/25/1987 06:15    3.43  1,568.00 166.4 704.7 True x
6/25/1987 16:25    2.55  253.00 88.6 60.7 True x
6/26/1987 06:08    1.88  157.00 37.8 16.1 True x
6/28/1987 17:35    1.40  89.00 15 3.6 True x
6/29/1987 06:35    1.38  145.00 14.3 5.6 True x
6/30/1987 18:15    1.89  230.00 38.3 23.9 True x
7/1/1987 06:30    8.18  1,038.00 840.6 2,356.9 True x
7/1/1987 18:20    9.70  3,280.00 1142.6 10,119.4 True x
7/2/1987 06:05    9.73  515.00 1149.1 1,599.9 True x
7/3/1987 06:15    6.42  329.00 542.7 483.2 True x
7/5/1987 17:25    3.04  91.00 130.6 32.2 True x
7/6/1987 19:20    2.39  56.00 75 11.5 True x
7/7/1987 07:02    2.22  76.00 61.4 12.7 True x
7/7/1987 13:41    2.32  58.00 69.2 10.9 True x
7/11/1987 08:40    1.92  75.00 40.3 8.2 True x
7/16/1987 14:38    1.31  41.00 11.9 1.3 True x
7/19/1987 18:25    1.13  56.00 6.8 1.0 True x
7/25/1987 17:00    1.04  27.00 4.8 0.4 True x
7/30/1987 06:30    1.10  78.00 6.1 1.3 True x
8/2/1987 19:15    2.96  153.00 123.5 51.1 True x
8/13/1987 14:02    0.99  37.00 3.8 0.4 True x
8/15/1987 10:55    0.94  37.00 0.3 True x
8/22/1987 13:10    0.82  29.00 1.4 0.1 True x
8/27/1987 16:21    0.88  10.00 2.1 0.1 True x
8/30/1987 18:15    0.81  23.00 1.3 0.1 True x
9/13/1987 18:35    0.87  31.00 0.2 True x
9/17/1987 07:50    1.08  72.00 5.6 1.1 True x
9/20/1987 16:00    1.33  78.00 12.5 2.7 True x
9/24/1987 14:22    1.00  27.00 0.3 True x
9/29/1987 07:15    0.84  66.00 1.6 0.3 True x
10/4/1987 17:45    0.77  11.00 0.9 0.0 True x
10/11/1987 15:15    0.88  14.00 2.1 0.1 True x
10/18/1987 16:15    0.82  18.00 1.4 0.1 True x
10/22/1987 14:31    0.81  11.00 1.3 0.0 True x
10/25/1987 16:30    0.82  7.00 1.4 0.0 True x
10/27/1987 08:18    0.90  13.00 2.4 0.1 True x
11/8/1987 15:30    0.98  85.00 3.7 0.8 True x
11/15/1987 16:50    1.11  12.00 6.3 0.2 True x
11/17/1987 06:35    1.14  25.00 0.5 True x
11/18/1987 14:33    1.15  29.00 7.3 0.6 True x
11/24/1987 06:15    1.00  17.00 0.2 True x
11/24/1987 16:00    1.07  14.00 5.4 0.2 True x
11/25/1987 06:10    1.12  20.00 6.6 0.4 True x
11/26/1987 14:15    1.21  14.00 8.9 0.3 True x
11/28/1987 17:25    2.60  73.00 92.1 18.2 True x
11/29/1987 14:00    2.54  63.00 86.9 14.9 True x
12/3/1987 14:27    1.48 22.00 18.2 1.1 True x
12/6/1987 14:15    1.42  20.00 15.8 0.9 True x
12/9/1987 14:31    2.24 52.00 62.5 8.8 True x
12/14/1987 09:05    1.33  16.00 12.5 0.6 True x
12/15/1987 06:30    6.18  1,448.00 506.5 1,980.3 True x
12/15/1987 16:10    5.98  510.00 477 657.9 True x
12/16/1987 10:30    4.26  196.00 251.2 133.6 True x
12/16/1987 14:38    4.59 243.00 290.6 191.4 True x
12/19/1987 11:50    2.07  67.00 49.7 9.1 True x
12/20/1987 13:55    2.31  67.00 68 12.4 True x
12/23/1987 14:12    2.20  59.00 59.4 9.6 True x
12/24/1987 14:10    2.00  61.00 44.9 7.4 True x
12/25/1987 09:00    4.65  279.00 297.9 225.0 True x
12/25/1987 15:50    10.40  1,311.00 1297 4,594.1 True x
12/26/1987 09:50    14.34  564.00 2297 3,502.7 True x
12/26/1987 16:00    7.64 14 459.00 744.2 922.3 True x
12/27/1987 13:40    13.94  264.00 2184 1,558.0 True x
12/28/1987 10:45    13.37  265.00 2035 1,458.6 True x
12/30/1987 15:25    12.14  119.00 1715 553.8 True x
12/31/1987 11:40    10.60  106.00 1344 385.6 True x
1/3/1988 17:00    6.20  66.00 509.5 91.7 True x
1/10/1988 15:15    2.68  17.00 99 4.7 True x
1/12/1988 17:00    1.95  2.00 41.8 0.3 True x
1/13/1988 14:10    1.97 13.00 43.1 1.5 True x
1/17/1988 16:00    2.36  79.00 71.9 15.4 True x
1/19/1988 16:05    12.12  3,670.00 1710 16,948.5 True x
1/20/1988 06:35    12.75  856.00 1879 4,343.3 True x
1/20/1988 14:53    12.51  557.00 1811 2,724.6 True x
1/20/1988 16:00    12.40  495.00 1782 2,384.0 True x
1/21/1988 08:15    9.35  288.00 1069 833.6 True x
1/22/1988 16:15    7.75  150.00 763.5 310.9 True x
1/25/1988 06:20    6.64  85.00 577 132.6 True x
1/27/1988 15:33    4.23 55.00 247.7 37.0 True x
2/2/1988 12:58    13.13 969.00 1973 5,162.7 True x
2/2/1988 15:50    12.98  829.00 1935 4,335.9 True x
2/3/1988 06:10    13.07  488.00 1958 2,580.1 True x
2/3/1988 15:44    12.31  316.00 1759 1,500.8 True x
2/3/1988 16:00    12.22  323.00 1736 1,517.1 True x
2/14/1988 14:30    2.74  21.00 104.3 5.9 True x
2/18/1988 08:00    2.67  20.00 98.2 5.5 True x
2/19/1988 08:30    3.25  48.00 150.4 19.8 True x
2/21/1988 15:00    4.89  81.00 327.6 72.0 True x
2/23/1988 08:50    3.38  48.00 162.7 21.3 True x
2/24/1988 14:52    2.99  50.00 126.6 17.1 True x
2/28/1988 15:20    2.34  34.00 70.3 6.6 True x
3/2/1988 15:00    2.12 39.00 53.4 5.7 True x
3/4/1988 09:30    6.89  495.00 617.2 826.3 True x
3/4/1988 11:47    6.82 348.00 605.9 570.4 True x
3/6/1988 15:25    6.20  138.00 509.5 190.6 True x
3/10/1988 14:10    3.40  68.00 164.6 30.4 True x
3/13/1988 16:50    3.80  291.00 203.3 160.2 True x
3/16/1988 15:10    2.78 30.00 107.8 8.9 True x
3/20/1988 15:40    2.72  21.00 102.5 5.9 True x
3/23/1988 14:51    2.35  62.00 71.1 12.0 True x
3/25/1988 17:45    2.79  72.00 108.7 21.3 True x
3/26/1988 10:15    2.76  75.00 106 21.7 True x
3/27/1988 15:30    2.70  71.00 100.8 19.5 True x
3/29/1988 13:55    2.42  84.00 76.8 17.6 True x
3/30/1988 07:30    9.41  1,102.00 1081 3,216.7 True x
3/30/1988 17:15    8.97  370.00 991.9 991.8 True x
3/31/1988 08:55    7.22  324.00 672 589.1 True x
3/31/1988 13:00    7.57  344.00 732.1 681.0 True x
3/31/1988 13:20    7.65  345.00 746 695.9 True x
3/31/1988 16:30    8.22  321.00 848 735.7 True x
4/1/1988 07:15    11.43  1,583.00 1541 6,589.7 True x
4/1/1988 17:25    12.10  708.00 1705 3,262.0 True x
4/2/1988 07:40    11.87  356.00 1648 1,586.6 True x
4/2/1988 17:30    11.50  242.00 1558 1,019.3 True x
4/3/1988 14:15    10.83  195.00 1399 737.3 True x
4/4/1988 16:45    10.25  134.00 1263 459.2 True x
4/6/1988 06:25    9.45  97.00 1090 285.8 True x
4/10/1988 13:55    4.88  60.00 326.4 52.9 True x
4/13/1988 14:35    3.30 17 34.00 155.1 14.6 True x
4/17/1988 16:25    2.14  24.00 54.8 3.6 True x
4/18/1988 17:30    2.42  37.00 76.8 7.8 True x
4/21/1988 14:53    2.36  30.00 71.9 6.0 True x
4/24/1988 14:10    1.97  41.00 44.3 5.0 True x
5/1/1988 16:10    1.56  40.00 21.7 2.4 True x
5/4/1988 15:50    1.76  86.00 31.3 7.3 True x
5/4/1988 16:30    1.80  86.00 33.4 7.8 True x
5/6/1988 07:25    1.93  68.00 40.7 7.5 True x
5/7/1988 09:15    1.89  64.00 38.3 6.7 True x
5/9/1988 07:20    1.63  81.00 25 5.5 True x
5/14/1988 09:30    1.50  91.00 19 4.7 True x
5/18/1988 15:17    1.25  49.00 10 1.3 True x
5/21/1988 11:35    1.13  49.00 6.8 0.9 True x
5/23/1988 07:40    1.19  61.00 8.3 1.4 True x
5/24/1988 07:40    1.47  103.00 17.8 5.0 True x
5/25/1988 06:35    1.78  115.00 32.3 10.1 True x
5/25/1988 14:05    1.67 19 77.00 26.8 5.6 True x
5/29/1988 14:20    1.38  54.00 14.3 2.1 True x
6/1/1988 13:58    1.11 25 44.00 6.3 0.8 True x
6/5/1988 15:50    0.99  39.00 3.8 0.4 True x
6/12/1988 15:20    0.90  32.00 2.4 0.2 True x
6/15/1988 14:29    0.85  26.00 1.7 0.1 True x
6/19/1988 16:50    0.82  18.00 1.4 0.1 True x
6/25/1988 10:15    0.81  35.00 1.3 0.1 True x
6/29/1988 14:52    0.71  34.00 0.6 0.1 True x
7/2/1988 08:40    0.73  29.00 0.7 0.1 True x
7/9/1988 09:25    0.73  37.00 0.7 0.1 True x
7/13/1988 09:10    0.78  32.00 0.1 True x
7/13/1988 14:24    0.78  19.00 0.1 True x
7/19/1988 07:40    1.42  99.00 15.8 4.2 True x
7/20/1988 06:15    1.16  85.00 7.5 1.7 True x
7/21/1988 06:10    2.21  151.00 60.2 24.6 True x
7/23/1988 13:00    1.49  84.00 18.6 4.2 True x
8/21/1988 18:00    0.79  25.00 1.1 0.1 True x
8/25/1988 13:51    0.93  26.00 2.8 0.2 True x
8/28/1988 16:15    0.82  26.00 1.4 0.1 True x
9/2/1988 13:14    0.77 22 44.00 0.9 0.1 True x
9/3/1988 07:30    0.95  87.00 3.2 0.7 True x
9/4/1988 12:55    1.05  60.00 0.8 True x
9/8/1988 14:20    1.00  30.00 0.3 True x
9/11/1988 16:00    0.80  20.00 1.2 0.1 True x
9/12/1988 08:20    1.00  286.00 3.1 True x
9/12/1988 12:30    1.02  79.00 4.4 0.9 True x
9/15/1988 14:02    1.56 22 45.00 21.7 2.7 True x
9/17/1988 16:40    1.07  41.00 5.4 0.6 True x
9/19/1988 07:10    3.85  345.00 208.2 194.4 True x
9/20/1988 09:12    1.50  108.00 19 5.6 True x
9/20/1988 13:02    2.32  191.00 68.8 35.6 True x
9/21/1988 06:30    2.29  128.00 66.4 23.0 True x
9/22/1988 06:50    1.56  113.00 21.7 6.6 True x
9/22/1988 13:04    1.48  191.00 18.2 9.4 True x
9/24/1988 07:20    1.28  131.00 10.9 3.9 True x
9/25/1988 17:00    1.37  85.00 13.9 3.2 True x
10/11/1988 13:53    0.77 15 94.00 3.6 0.9 True x
10/15/1988 08:00    0.71  95.00 2.9 0.7 True x
10/16/1988 11:35    0.74  68.00 3.2 0.6 True x
10/18/1988 14:25    0.68 15 17.00 2.5 0.1 True x
10/21/1988 10:15    0.77  19.00 3.6 0.2 True x
10/23/1988 13:25    1.00  21.00 7.9 0.4 True x
10/24/1988 14:10    1.20 11 62.00 13.6 2.3 True x
10/30/1988 13:50    2.56  145.00 109.4 43.1 True x
11/1/1988 14:20    1.47 80.00 24.1 5.2 True x
11/6/1988 15:10    3.17  3,706.00 170 1,701.3 True x
11/7/1988 15:15    2.49 10 104.00 103.1 29.0 True x
11/12/1988 09:30    1.15  423.00 12 13.7 True x
11/13/1988 15:20    1.24  37.00 15 1.5 True x
11/15/1988 14:07    1.20 11 37.00 13.6 1.4 True x
11/19/1988 09:25    8.34  1,500.00 936.1 3,792.7 True x
11/20/1988 07:35    11.52  1,136.00 1623 4,980.3 True x
11/21/1988 15:50    7.10  231.00 713.7 445.1 True x
11/22/1988 13:16    6.38 143.00 594.6 231.2 True x
11/26/1988 09:15    3.60  58.00 217 34.1 True x
11/26/1988 14:55    4.27  94.00 296.8 75.4 True x
11/27/1988 17:00    9.21  233.00 1113 701.9 True x
11/28/1988 15:08    6.38 124.00 594.6 200.6 True x
11/30/1988 14:33    5.56 56.00 470.5 72.2 True x
12/5/1988 13:30    2.14  29.00 71.5 5.7 True x
12/18/1988 11:30    1.24  13.00 15 0.5 True x
12/20/1988 14:29    1.40 11.00 21.1 0.7 True x
12/25/1988 15:15    3.98  168.00 260.6 118.4 True x
12/27/1988 13:44    2.49 50.00 103.1 14.2 True x
12/28/1988 13:25    11.53  845.00 1625 3,708.3 True x
1/1/1989 13:55    8.17  98.00 902.8 240.2 True x
1/3/1989 14:52    6.87 66.00 675 121.5 True x
1/6/1989 07:50    9.33  334.00 1138 1,026.4 True x
1/7/1989 09:00    7.57  132.00 793.9 283.2 True x
1/10/1989 14:41    7.00  113.00 697 213.9 True x
1/14/1989 13:30    6.07  48.00 545.8 71.5 True x
1/17/1989 14:55    5.75 41.00 498 55.3 True x
1/22/1989 15:15    2.60  16.00 113 5.1 True x
1/24/1989 15:35    2.35  18.00 90.4 4.6 True x
1/29/1989 15:30    6.87  96.00 675 175.0 True x
1/31/1989 14:52    5.50 63.00 462 79.6 True x
2/2/1989 15:45    4.19  120.00 286.6 93.0 True x
2/6/1989 14:30    14.24  135.00 2314 848.3 True x
2/7/1989 15:01    11.55 149.00 1630 659.5 True x
2/11/1989 14:10    5.18  117.00 417.3 132.2 True x
2/13/1989 15:40    12.20  1,492.00 1789 7,208.1 True x
2/16/1989 08:45    22.18  123.00 5053 1,678.9 True x
2/17/1989 08:25    21.32  92.00 4676 1,164.4 True x
2/18/1989 15:55    16.42  107.00 2928 853.6 True x
2/21/1989 08:10    12.23  158.00 1796 769.3 True x
2/21/1989 15:17    11.67 101.00 1659 452.4 True x
2/22/1989 14:45    9.45  71.00 1163 224.8 True x
2/26/1989 11:20    7.63  26.00 804.3 56.6 True x
3/4/1989 08:45    4.23  44.00 291.7 34.8 True x
3/5/1989 15:10    13.03  525.00 1998 2,833.8 True x
3/8/1989 13:52    12.36 87.00 1828 430.1 True x
3/12/1989 15:55    7.66  66.00 809.6 144.3 True x
3/14/1989 15:31    6.27 11 48.00 577.1 76.1 True x
3/19/1989 15:30    3.08  33.00 161 14.7 True x
3/21/1989 08:15    9.40  307.00 1152 955.4 True x
3/21/1989 15:17    8.27 189.00 922.3 471.2 True x
3/28/1989 14:50    2.89 18 31.00 142 12.2 True x
3/29/1989 08:10    3.67  263.00 224.7 159.6 True x
3/30/1989 07:55    9.10  971.00 1090 2,858.3 True x
3/31/1989 08:45    12.91  553.00 1967 2,937.2 True x
4/1/1989 10:00    12.91  170.00 1967 903.6 True x
4/3/1989 12:55    10.64  76.00 1419 292.3 True x
4/4/1989 08:20    13.99  725.00 2247 4,399.4 True x
4/6/1989 10:45    10.78  95.00 1450 372.7 True x
4/8/1989 14:30    9.03  74.00 1076 215.0 True x
4/11/1989 15:15    6.01 11 34.00 536.5 49.6 True x
4/16/1989 14:20    3.01  26.00 154 11.0 True x
4/19/1989 14:55    2.52 17 28.00 105.8 8.2 True x
4/25/1989 08:55    1.93  25.00 53.7 3.7 True x
4/25/1989 15:15    1.91 23 17.00 52.1 2.5 True x
4/30/1989 14:25    2.51  35.00 104.9 10.1 True x
5/2/1989 14:47    1.86 18 28.00 48.3 3.7 True x
5/6/1989 13:25    1.59  30.00 30.4 2.5 True x
5/9/1989 15:04    1.53 16 53.00 27.1 3.9 True x
5/17/1989 14:56    1.38 20 50.00 20.3 2.8 True x
5/21/1989 16:45    1.22  38.00 14.3 1.5 True x
5/23/1989 17:30    1.22  44.00 14.3 1.7 True x
5/24/1989 10:50    1.22 19 46.00 14.3 1.8 True x
5/27/1989 15:25    1.28  42.00 16.4 1.9 True x
5/31/1989 15:51    1.00 27 31.00 7.9 0.7 True x
6/5/1989 11:30    1.12  44.00 11.1 1.3 True x
6/8/1989 14:06    1.52 22 59.00 26.6 4.2 True x
6/11/1989 15:50    1.08  39.00 10 1.1 True x
6/13/1989 07:10    7.83  494.00 839.6 1,120.0 True x
6/15/1989 12:35    5.92  193.00 523 273.2 True x
6/17/1989 11:35    4.86  117.00 374 118.6 True x
6/20/1989 16:20    5.81  213.00 506.8 291.7 True x
6/21/1989 14:51    5.26 23 165.00 428.3 191.3 True x
6/23/1989 13:11    2.74  79.00 127 27.2 True x
6/25/1989 15:45    2.48  87.00 102.2 24.1 True x
7/1/1989 13:35    2.32  96.00 87.8 22.8 True x
7/2/1989 15:15    2.80  142.00 133 51.3 True x
7/5/1989 14:36    2.80 24 83.00 133 30.0 True x
7/7/1989 13:00    2.55  93.00 108.5 27.5 True x
7/19/1989 14:51    0.99 26 41.00 7.6 0.9 True x
7/26/1989 10:10    0.94  42.00 6.5 0.8 True x
7/30/1989 16:15    0.91  32.00 5.9 0.5 True x
8/6/1989 15:50    1.04  71.00 8.9 1.7 True x
8/17/1989 14:46    0.67 25 33.00 2.4 0.2 True x
8/20/1989 15:40    1.10  59.00 10.5 1.7 True x
8/23/1989 14:30    0.85 28 32.00 4.9 0.4 True x
8/27/1989 15:35    1.34  78.00 18.7 3.9 True x
9/4/1989 12:45    0.76  38.00 3.5 0.4 True x
9/6/1989 14:50    0.70 26 27.00 2.8 0.2 True x
9/16/1989 08:55    1.72  99.00 38.4 10.3 True x
9/20/1989 14:32    0.83 21 37.00 4.5 0.5 True x
10/4/1989 14:48    0.55 18 12.00 1.4 0.0 True x
10/18/1989 14:18    0.96  61.00 1.2 True x
10/25/1989 14:07    0.62 16 14.00 0.1 True x
11/7/1989 13:30    0.57 14 10.00 1.6 0.0 True x
11/14/1989 14:30    0.83 13 32.00 4.5 0.4 True x
11/21/1989 13:53    0.92  12.00 6.1 0.2 True x
11/28/1989 14:20    0.75 16.00 3.4 0.2 True x
12/12/1989 14:31    0.75 4.00 3.4 0.0 True x
1/5/1990 14:10    2.03  88.00 62 14.8 True x
1/18/1990 14:20    2.17  140.00 74.2 28.1 True x
1/24/1990 15:45    7.26 171.00 740.6 342.9 True x
2/7/1990 14:49    5.69 54.00 489.2 72.3 True x
2/14/1990 15:00    6.68 11 89.00 643.4 155.3 True x
2/19/1990 14:58    11.84 109.00 1701 501.9 True x
2/27/1990 14:46    6.23 30.00 570.8 46.3 True x
3/7/1990 15:00    1.88 10 28.00 49.8 3.8 True x
3/12/1990 14:42    1.88 18 37.00 49.8 5.1 True x
3/19/1990 14:19    2.31 11 46.00 86.9 10.9 True x
4/4/1990 14:42    5.74 13 59.00 496.5 80.3 True x
4/11/1990 15:38    12.28 11 236.00 1809 1,157.0 True x
4/17/1990 14:57    10.37 12 429.00 1360 1,578.1 True x
4/25/1990 14:30    3.23 21 47.00 176.3 22.8 True x
5/1/1990 13:05    9.28 17 250.00 1127 762.5 True x
5/8/1990 14:52    5.65 18 70.00 483.5 92.3 True x
5/15/1990 14:40    7.30 18 107.00 747.4 217.6 True x
5/22/1990 14:58    10.60 18 113.00 1410 433.6 True x
5/29/1990 14:53    15.30 20 140.00 2604 988.7 True x
6/5/1990 15:00    5.25  88.00 427 101.8 True x
6/12/1990 14:46    1.82 24 70.00 45.3 8.7 True x
6/19/1990 14:51    1.36 28 43.00 19.5 2.3 True x
6/26/1990 14:53    1.18 25 47.00 13 1.7 True x
7/10/1990 15:04    1.21 29 47.00 14 1.8 True x
7/23/1990 11:46    2.70 24 205.00 123 68.2 True x
7/31/1990 14:51    1.07 27 83.00 9.7 2.2 True x
8/8/1990 14:33    1.12 22 73.00 11.1 2.2 True x
8/22/1990 11:45    0.95 21 60.00 6.7 1.1 True x
8/28/1990 11:25    0.71  36.00 2.9 0.3 True x
9/5/1990 14:03    0.62 25 19.00 0.1 True x
9/12/1990 14:28    1.50 24 82.00 25.5 5.7 True x
9/19/1990 14:28    0.62 23 30.00 0.2 True x
9/26/1990 14:16    0.60 20 26.00 1.8 0.1 True x
10/31/1990 13:53    0.73 12 30.00 3.1 0.3 True x
11/7/1990 14:26    0.72  13.00 0.1 True x
11/20/1990 14:21    0.81  16.00 4.2 0.2 True x
11/27/1990 14:30    1.25 16 40.00 15.3 1.7 True x
12/4/1990 14:53    1.95  31.00 55.3 4.8 True x
12/11/1990 14:04    1.18 15.00 13 0.5 True x
12/18/1990 15:16    10.25  656.00 1334 2,363.1 True x
12/26/1990 15:15    12.76  110.00 1929 577.6 True x
1/16/1991 11:46    11.44  44.00 1604 190.6 True x
1/23/1991 15:02    2.90  28.00 143 10.9 True x
1/30/1991 14:42    4.60  45.00 339.8 41.7 True x
2/6/1991 15:37    12.71  584.00 1916 3,023.2 True x
2/13/1991 14:46    9.08  606.00 1086 1,777.8 True x
2/14/1991 11:42    12.10 375.00 1764 1,786.1 True x
2/20/1991 14:43    7.98 81.00 866.4 190.4 True x
2/27/1991 14:34    6.34  20.00 588.2 32.2 True x
3/6/1991 14:25    3.29 39.00 181.8 19.3 True x
3/13/1991 15:12    2.09  35.00 67.1 6.5 True x
3/21/1991 14:11    3.58 14 71.00 214.8 41.5 True x
3/27/1991 14:33    8.45  94.00 957.9 245.2 True x
4/3/1991 14:25    4.07 16 35.00 271.6 26.2 True x
4/10/1991 14:32    6.45 17 253.00 605.8 414.3 True x
4/16/1991 14:41    9.38 18 107.00 1148 332.0 True x
4/24/1991 14:37    3.04  41.00 157 17.7 True x
5/1/1991 14:47    7.71 20 108.00 818.4 240.6 True x
5/8/1991 14:40    2.53  50.00 106.7 14.6 True x
5/15/1991 14:49    6.28 23 178.00 578.7 278.6 True x
5/20/1991 12:57    5.58 23 208.00 473.4 267.0 True x
5/22/1991 14:42    6.78  161.00 659.9 287.7 True x
6/5/1991 14:26    1.63  64.00 32.8 5.7 True x
6/13/1991 14:38    1.12 26 25.00 13.6 0.9 True x
6/19/1991 14:24    1.04  25.00 8.9 0.6 True x
6/26/1991 14:40    1.18 27 36.00 10 1.0 True x
7/2/1991 13:40    0.94 27 38.00 6.5 0.7 True x
7/9/1991 13:50    0.97 30 31.00 7.2 0.6 True x
7/17/1991 14:14    0.78 29 17.00 3.8 0.2 True x
7/24/1991 13:58    0.66 30 14.00 2.3 0.1 True x
8/1/1991 13:57    0.62 29 11.00 0.1 True x
8/7/1991 14:07    1.73 27 190.00 39.1 20.1 True x
8/21/1991 13:52    0.68  29.00 2.5 0.2 True x
8/28/1991 13:29    0.65  14.00 2.2 0.1 True x
9/4/1991 13:48    0.70 25 22.00 2.8 0.2 True x
9/11/1991 13:08    0.71 28 20.00 2.9 0.2 True x
9/17/1991 12:55    0.69 26 15.00 2.6 0.1 True x
10/18/1991 14:26    0.52 17 10.00 1.2 0.0 True x
10/29/1991 14:15    1.30 19 65.00 17.1 3.0 True x
11/8/1991 13:24    0.87 10.00 5.2 0.1 True x
11/12/1991 15:40    0.72 13.00 0.1 True x
11/20/1991 15:47    6.37 16 376.00 593 602.4 True x
11/26/1991 15:24    5.66 62.00 484.9 82.4 True x
12/6/1991 15:15    10.79  83.00 1453 328.5 True x
12/11/1991 15:01    4.16 27.00 282.8 21.1 True x
12/17/1991 14:09    2.22 20.00 78.8 4.3 True x
12/23/1991 14:23    3.94 62.00 255.8 43.5 True x
12/30/1991 13:54    2.37 14.00 92.3 3.6 True x
1/7/1992 14:29    2.51 19.00 104.9 5.5 True x
1/15/1992 14:40    5.71 55.00 492.2 73.1 True x
1/21/1992 14:16    2.06 10.00 64.5 1.9 True x
1/28/1992 14:12    1.80 14.00 43.9 1.8 True x
2/4/1992 14:38    1.52 12.00 26.6 0.9 True x
2/11/1992 14:18    1.31 8.00 17.5 0.4 True x
2/18/1992 14:53    6.51 116.00 615.6 192.9 True x
2/25/1992 14:48    6.28 11 119.00 578.7 186.8 True x
3/3/1992 15:07    1.90 14 35.00 51.4 4.9 True x
3/11/1992 15:17    1.90 30.00 51.4 4.2 True x
3/13/1992 12:57    1.75 17.00 40.4 1.9 True x
3/19/1992 14:35    9.67 10 369.00 1209 1,206.4 True x
3/24/1992 14:06    3.33 11 30.00 187.3 15.6 True x
4/2/1992 14:04    6.96 10 92.00 690.2 173.2 True x
4/7/1992 14:39    2.28 14 25.00 84.2 5.9 True x
4/17/1992 14:40    1.74 21 27.00 39.8 2.9 True x
4/23/1992 14:40    6.29 19 91.00 580.3 143.9 True x
4/28/1992 14:24    2.05 13 23.00 63.7 4.0 True x
4/29/1992 14:04    1.90 13 25.00 51.4 3.5 True x
5/6/1992 14:17    1.36 16 28.00 19.5 1.5 True x
5/12/1992 14:25    1.07 21 32.00 9.7 0.8 True x
5/21/1992 14:39    1.50 23 54.00 25.5 3.8 True x
5/26/1992 14:38    1.02 19 58.00 8.4 1.3 True x
6/2/1992 14:25    0.81 22 45.00 4.2 0.5 True x
6/10/1992 13:38    0.91  38.00 5.9 0.6 True x
6/18/1992 14:11    0.71 27 21.00 2.9 0.2 True x
6/25/1992 13:58    0.59 24 26.00 1.7 0.1 True x
7/2/1992 13:37    0.65 26 26.00 2.2 0.2 True x
7/8/1992 14:09    0.73 28 35.00 3.1 0.3 True x
7/13/1992 13:32    0.54 28 35.00 1.3 0.1 True x
7/21/1992 13:29    0.73 26 56.00 3.1 0.5 True x
7/28/1992 13:23    0.67 26 37.00 2.4 0.2 True x
8/6/1992 15:07    0.48 26 22.00 0.9 0.1 True x
8/12/1992 13:54    1.01 24 42.00 8.1 0.9 True x
8/20/1992 14:26    0.39 24 12.00 0.4 0.0 True x
8/27/1992 14:59    0.87 23 181.00 5.2 2.6 True x
9/4/1992 14:57    0.94 23 48.00 6.5 0.9 True x
9/10/1992 14:04    0.72 23 53.00 0.4 True x
9/18/1992 14:28    0.54 24 28.00 1.3 0.1 True x
9/23/1992 14:33    4.55 20 194.00 333.4 175.4 True x
10/2/1992 14:25    0.82 16 27.00 9.6 0.7 True x
10/15/1992 14:10    0.48 16 15.00 2.3 0.1 True x
10/23/1992 13:41    0.67 14 17.00 5.5 0.3 True x
10/27/1992 13:57    0.49 16 10.00 2.4 0.1 True x
11/6/1992 12:48    0.86 4.00 11 0.1 True x
11/12/1992 14:58    9.97 13 1,587.00 1325 5,680.4 True x
11/18/1992 15:06    1.83 11 26.00 72.3 5.1 True x
11/25/1992 13:16    6.15 10 83.00 596.1 135.1 True x
12/3/1992 13:57    1.47 15 16.00 42.8 1.9 True x
12/9/1992 12:01    1.13 13.00 22.3 0.8 True x
12/17/1992 14:31    1.33 12.00 33.4 1.1 True x
12/22/1992 11:44    1.32 13.00 32.8 1.2 True x
12/30/1992 12:21    1.77 21.00 66.7 3.8 True x
1/5/1993 14:30    13.96 412.00 2311 2,573.1 True x
1/12/1993 12:18    6.26  46.00 613.8 77.2 True x
1/20/1993 13:54    1.86  14.00 75.1 2.8 True x
1/21/1993 14:47    9.88 454.00 1305 1,601.6 True x
1/28/1993 12:35    5.01 38.00 424.8 44.5 True x
2/3/1993 11:45    2.98 18.00 179.9 8.9 True x
2/17/1993 11:00    3.99 21.00 291.6 17.1 True x
2/24/1993 11:05    8.19 110.00 957.1 285.3 True x
3/4/1993 15:45    11.22 132.00 1610 577.0 True x
3/9/1993 11:52    6.51  48.00 654.9 86.3 True x
3/11/1993 16:00    4.55 33.00 362.3 32.3 True x
3/22/1993 16:15    3.33 10 38.00 216.3 22.4 True x
3/29/1993 15:10    4.00 18 33.00 292.8 26.3 True x
4/5/1993 17:50    4.16 10 22.00 312.4 18.8 True x
4/13/1993 15:50    8.92 17 88.00 1102 264.2 True x
4/19/1993 15:15    8.03 17 55.00 926.4 139.4 True x
4/26/1993 17:05    2.65 18 33.00 146.3 13.1 True x
5/3/1993 14:40    12.07 16 400.00 1817 1,967.1 True x
5/7/1993 12:04    9.05 21 79.00 1129 242.9 True x
5/9/1993 10:50    5.14 23 53.00 443.2 63.6 True x
5/17/1993 17:50    1.75 20 29.00 64.9 5.2 True x
5/24/1993 16:00    1.35 20 28.00 34.7 2.6 True x
5/31/1993 16:00    1.13 20 31.00 22.3 1.9 True x
6/7/1993 16:25    2.92 22 115.00 173.5 54.1 True x
6/14/1993 18:07    2.67 27 57.00 148.2 23.0 True x
6/21/1993 16:00    1.19 27 35.00 25.4 2.4 True x
6/24/1993 11:45    1.01 27 28.00 16.9 1.3 True x
6/29/1993 16:00    3.22 28 141.00 204.6 78.0 True x
7/5/1993 13:30    1.10 30 33.00 20.9 1.9 True x
7/12/1993 15:45    0.69  25.00 0.4 True x
7/19/1993 15:15    0.58 32 17.00 3.7 0.2 True x
7/26/1993 15:20    0.81 31 39.00 9.3 1.0 True x
8/2/1993 11:55    0.53 28 30.00 2.9 0.2 True x
8/9/1993 16:10    0.47 28 18.00 2.2 0.1 True x
8/16/1993 15:55    0.73 29 24.00 0.5 True x
8/23/1993 15:10    0.68 29 48.00 5.7 0.8 True x
8/30/1993 18:07    0.49 28 35.00 2.4 0.2 True x
9/6/1993 19:50    1.98 23 39.00 86.2 9.2 True x
9/13/1993 18:05    0.52 23 22.00 2.8 0.2 True x
9/20/1993 18:45    0.64 20 38.00 4.8 0.5 True x
9/22/1993 13:13    0.55 22 32.00 3.2 0.3 True x
9/27/1993 14:40    5.73 19 138.00 530.3 198.4 True x
10/4/1993 19:30    2.25 16 58.00 109 17.2 True x
10/12/1993 17:50    1.17 14 16.00 24.3 1.1 True x
10/18/1993 17:05    4.23 17 281.00 321.1 243.9 True x
10/25/1993 16:35    1.79 14 15.00 68.6 2.9 True x
11/1/1993 16:20    1.24 10.00 28.1 0.8 True x
11/8/1993 16:20    1.11 5.00 21.4 0.3 True x
11/15/1993 16:30    9.97 13 236.00 1325 847.8 True x
11/17/1993 14:40    14.71 12 325.00 2519 2,212.3 True x
11/17/1993 15:15    14.70 12 308.00 2517 2,095.0 True x
11/22/1993 16:30    8.56 100.00 1030 279.0 True x
11/29/1993 16:25    5.39 37.00 479.3 48.6 True x
12/7/1993 10:55    7.18 50.00 770 104.9 True x
12/14/1993 12:55    2.84 20.00 165.2 9.1 True x
12/22/1993 13:25    1.81 14.00 70.4 2.7 True x
12/22/1993 13:43    1.81 13.00 70.4 2.5 True x
12/22/1993 16:00    1.80 320.00 69.5 60.1 True x
12/29/1993 14:18    1.55 18.00 48.6 2.4 True x
1/6/1994 12:30    1.80 153.00 69.5 28.8 True x
1/12/1994 13:35    2.47 91.00 129.1 32.0 True x
1/19/1994 12:50    1.90 18.00 79 4.0 True x
1/25/1994 11:25    9.00 623.00 1119 1,884.4 True x
2/1/1994 12:20    9.20 146.00 1160 457.6 True x
2/7/1994 12:00    3.94 31.00 285.6 24.4 True x
2/14/1994 13:50    2.45 33.00 127.2 11.5 True x
2/21/1994 10:23    7.85 10 239.00 892.3 576.7 True x
2/24/1994 12:52    9.19 168.00 1158 527.8 True x
2/24/1994 13:19    9.12 157.00 1143 486.9 True x
2/28/1994 10:20    5.81 55.00 542.6 81.8 True x
3/7/1994 09:15    3.96 11 26.00 288 20.5 True x
3/15/1994 08:40    6.70 11 1,040.00 686.8 1,930.2 True x
3/22/1994 17:00    3.23 15 72.00 205.6 40.5 True x
3/28/1994 16:45    7.17 11 135.00 768.2 280.2 True x
4/4/1994 18:50    5.88 13 35.00 553.5 52.6 True x
4/7/1994 13:47    8.38 10 88.00 994.1 237.0 True x
4/7/1994 14:10    8.36 10 73.00 990.1 195.4 True x
4/11/1994 17:30    10.65 16 198.00 1477 791.4 True x
4/18/1994 18:20    8.60 20 51.00 1038 144.8 True x
4/25/1994 16:30    8.19 21 19.00 957.1 51.4 True x
5/2/1994 16:15    7.61 15 106.00 847.7 243.9 True x
5/9/1994 18:20    2.82 19 47.00 163.2 20.8 True x
5/16/1994 16:15    1.66 24 28.00 57.2 4.4 True x
5/23/1994 12:15    1.97 23 25.00 85.3 5.8 True x
5/23/1994 13:56    1.98 24 27.00 86.2 6.3 True x
5/23/1994 14:12    1.98 24 25.00 86.2 6.0 True x
5/31/1994 12:09    0.76 25 30.00 7.8 0.6 True x
6/6/1994 15:30    0.70 28 30.00 6.2 0.5 True x
6/13/1994 12:05    0.85  41.00 10.7 1.2 True x
6/20/1994 06:40    0.56  33.00 3.3 0.3 True x
6/27/1994 16:55    4.40  297.00 342.8 275.3 True x
7/5/1994 15:10    0.73 32 47.00 0.9 True x
7/7/1994 13:48    1.26  56.00 29.2 4.5 True x
7/7/1994 14:05    1.26  52.00 29.2 4.1 True x
7/11/1994 15:10    0.84 30 50.00 10.3 1.4 True x
7/19/1994 15:10    1.39 31 34.00 37.3 3.5 True x
7/26/1994 15:15    0.45 28 32.00 0.2 True x
8/1/1994 16:50    0.35 30 16.00 1.1 0.0 True x
8/8/1994 15:10    0.70 28 31.00 6.2 0.5 True x
8/15/1994 12:40    0.45 26 24.00 0.1 True x
8/22/1994 16:35    0.35 26 19.00 1.1 0.1 True x
8/30/1994 15:10    0.38 29 17.00 1.3 0.1 True x
9/6/1994 14:35    0.39 27 17.00 1.4 0.1 True x
9/13/1994 06:40    0.36 21 23.00 1.2 0.1 True x
9/19/1994 12:20    0.26 25 7.00 0.5 0.0 True x
9/26/1994 16:05    0.31 18 10.00 0.8 0.0 True x
10/4/1994 12:20    0.28 21 6.00 1.6 0.0 True x
10/13/1994 14:16    0.27 17 3.00 1.5 0.0 True x
10/18/1994 07:50    0.31 17 12.00 0.1 True x
10/24/1994 12:35    0.81 17 28.00 15.8 1.2 True x
11/2/1994 14:40    0.37 16 12.00 2.9 0.1 True x
11/7/1994 14:25    6.90 17 163.00 770.8 340.0 True x
11/16/1994 12:40    2.20 13 23.00 128.6 8.0 True x
11/22/1994 13:20    3.96 12 74.00 326 65.7 True x
11/30/1994 13:15    6.20 10 113.00 653.1 200.3 True x
12/7/1994 14:05    1.72 12 21.00 81.4 4.7 True x
12/14/1994 14:10    3.99 37.00 329.8 33.3 True x
12/22/1994 12:10    1.96 15.00 104.1 4.4 True x
12/28/1994 15:05    1.40 14.00 52 2.0 True x
1/3/1995 13:50    1.21 9.00 37.9 1.0 True x
1/11/1995 14:55    2.10 31.00 118.1 10.0 True x
1/18/1995 10:00    10.77 484.00 1531 2,003.0 True x
1/26/1995 14:21    4.00 33.00 331.1 30.1 True x
1/26/1995 14:37    4.00 30.00 331.1 27.2 True x
1/27/1995 11:10    3.38 40.00 255 28.1 True x
2/3/1995 13:20    2.22 43.00 130.7 15.5 True x
2/8/1995 13:35    1.83 40.00 91.7 10.1 True x
2/15/1995 09:00    11.11 1,890.00 1604 8,186.7 True x
2/21/1995 13:45    5.99 80.00 619.1 133.9 True x
3/1/1995 14:45    3.94 73.00 323.4 64.3 True x
3/7/1995 13:00    7.17 10 523.00 818.1 1,156.1 True x
3/15/1995 09:00    4.09 16 47.00 342.7 43.6 True x
3/17/1995 13:58    2.80 17 31.00 191.1 16.4 True x
3/17/1995 14:12    2.78 17 45.00 189.1 23.0 True x
3/23/1995 12:45    1.49 21 27.00 59.5 4.4 True x
3/30/1995 12:00    2.64 16 47.00 174.4 22.3 True x
4/7/1995 14:20    1.25 20 19.00 40.6 2.1 True x
4/13/1995 17:00    1.12 20 19.00 32 1.7 True x
4/18/1995 11:55    1.28 22 89.00 42.8 10.3 True x
4/27/1995 12:30    3.36 18 70.00 252.7 48.2 True x
5/2/1995 13:35    11.56 15 197.00 1702 907.0 True x
5/4/1995 13:52    6.98 13 97.00 784.7 206.9 True x
5/4/1995 14:18    6.98 13 117.00 784.7 249.2 True x
5/10/1995 09:30    4.38 22 162.00 381.1 167.1 True x
5/17/1995 17:05    10.77 21 832.00 1531 3,439.9 True x
5/25/1995 10:30    9.90 25 47.00 1349 171.4 True x
5/30/1995 11:55    9.64 25 35.00 1294 124.4 True x
6/9/1995 14:30    3.90 25 165.00 318.4 142.2 True x
6/9/1995 14:49    3.86 25 175.00 313.3 148.1 True x
6/15/1995 17:00    1.73 27 46.00 82.4 10.4 True x
6/24/1995 14:40    4.08 27 139.00 341.4 128.9 True x
6/29/1995 19:05    6.30 25 210.00 669.5 381.1 True x
7/8/1995 17:25    1.27 28 41.00 42.1 4.7 True x
7/15/1995 17:45    0.62 32 23.00 8.8 0.6 True x
7/20/1995 13:35    0.43 28 24.00 0.3 True x
7/22/1995 17:10    0.41 30 22.00 3.6 0.2 True x
7/29/1995 17:30    0.85 31 39.00 17.6 1.9 True x
8/6/1995 17:05    4.07 28 234.00 340.1 215.7 True x
8/13/1995 18:30    0.69 31 30.00 11.2 0.9 True x
8/20/1995 16:25    0.41 32 21.00 3.6 0.2 True x
8/27/1995 18:35    0.33 28 21.00 2.2 0.1 True x
9/3/1995 16:00    0.23 27 15.00 0.9 0.0 True x
9/8/1995 13:12    0.47 22 34.00 4.8 0.4 True x
9/12/1995 16:15    0.13 26 16.00 0.1 0.0 True x
9/19/1995 10:15    0.77 20 58.00 14.2 2.2 True x
9/24/1995 11:45    0.17 17 10.00 0.1 0.0 True x
10/2/1995 12:40    0.12 20 12.00 0.0 True x
10/9/1995 18:25    0.18 18 11.00 1.8 0.1 True x
10/16/1995 14:40    0.12 20 4.00 0.0 True x
10/20/1995 13:52    0.12 13 11.00 0.0 True x
10/24/1995 15:45    0.10 17 4.00 0.8 0.0 True x
10/30/1995 15:10    0.15 15 6.00 1.4 0.0 True x
11/8/1995 15:15    0.34 10 10.00 4.9 0.1 True x
11/15/1995 12:45    1.12 55.00 47.3 7.1 True x
11/22/1995 14:35    0.34 25.00 4.9 0.3 True x
11/30/1995 15:10    0.24 15.00 2.7 0.1 True x
12/7/1995 13:25    0.24 16.00 2.7 0.1 True x
12/7/1995 16:10    0.24 16.00 2.7 0.1 True x
12/14/1995 16:30    0.27 17.00 3.3 0.2 True x
12/21/1995 08:52    3.56 63.00 289.7 49.8 True x
12/28/1995 16:35    0.80 24.00 24.7 1.7 True x
1/5/1996 15:05    1.70 58.00 90 14.3 True x
1/12/1996 12:05    1.45 23.00 70.4 4.5 True x
1/19/1996 16:50    4.07 205.00 360.1 200.0 True x
1/26/1996 14:10    4.99 89.00 501.7 121.0 True x
2/7/1996 16:20    1.18 16.00 51.2 2.3 True x
2/12/1996 17:15    1.11 15.00 46.6 2.0 True x
2/20/1996 16:15    1.11 22.00 46.6 2.8 True x
2/27/1996 16:15    1.97 16 63.00 112.9 19.2 True x
3/4/1996 14:30    1.31 10 44.00 60.2 7.3 True x
3/13/1996 17:25    1.80 11 34.00 98.2 9.0 True x
3/20/1996 15:30    7.46 131.00 964.8 342.6 True x
3/29/1996 16:30    2.48 43.00 161 18.8 True x
4/3/1996 13:40    3.44 12 72.00 273.9 53.3 True x
4/3/1996 13:57    3.42 12 71.00 271.4 52.2 True x
4/10/1996 15:30    1.57 13 21.00 79.6 4.6 True x
4/19/1996 17:10    1.23 21 29.00 54.6 4.3 True x
4/23/1996 16:30    12.13 16 780.00 2127 4,480.4 True x
4/30/1996 15:30    16.22 15 314.00 3413 2,900.3 True x
5/7/1996 17:30    12.14 18 161.00 2130 927.8 True x
5/10/1996 12:55    10.46 23 75.00 1672 340.1 True x
5/10/1996 13:21    10.45 23 71.00 1669 321.8 True x
5/14/1996 17:00    9.93 16 54.00 1536 224.0 True x
5/21/1996 09:55    8.54 24 22.00 1202 71.5 True x
5/28/1996 18:45    5.38 23 166.00 567 254.6 True x
6/4/1996 19:15    3.44 22 380.00 273.9 281.1 True x
6/11/1996 17:15    7.87 21 223.00 1053 636.3 True x
6/18/1996 18:30    2.62 28 66.00 175.9 31.6 True x
6/19/1996 14:05    2.08 27 45.00 122.8 15.1 True x
6/19/1996 14:19    2.08 27 45.00 122.8 15.0 True x
6/26/1996 15:00    0.76 29 34.00 22.6 2.1 True x
7/3/1996 18:45    0.42 28 22.00 7.2 0.4 True x
7/10/1996 20:30    0.27 25 24.00 3.3 0.2 True x
7/18/1996 15:15    0.77 29 50.00 23.1 3.2 True x
7/25/1996 20:30    0.38 26 43.00 0.7 True x
8/1/1996 18:15    0.33 27 29.00 4.6 0.4 True x
8/8/1996 18:45    0.14 30 15.00 1.2 0.1 True x
8/9/1996 13:32    0.09 28 19.00 0.7 0.0 True x
8/17/1996 19:00    0.04 28 23.00 0.3 0.0 True x
8/22/1996 19:00    0.04 29 18.00 0.3 0.0 True x
8/28/1996 16:00    0.04 28 16.00 0.3 0.0 True x
9/6/1996 15:30    0.08 24 175.00 0.6 0.3 True x
9/16/1996 07:40    0.22 19 59.00 2.4 0.4 True x
9/18/1996 15:20    1.21 20 98.00 53.3 14.1 True x
9/19/1996 13:44    0.70 19 39.00 19.5 2.1 True x
9/26/1996 16:00    0.25 18 41.00 2.9 0.3 True x
10/11/1996 11:30    0.20 15 12.00 10.3 0.4 True x
10/22/1996 14:30    0.05 15 24.00 5.3 0.3 True x
11/1/1996 14:15    0.79 15 26.00 40.9 2.9 True x
11/7/1996 07:45    0.59 15 123.00 29.4 9.8 True x
11/7/1996 13:24    8.52 14 1,671.00 1198 5,408.1 True x
11/7/1996 13:48    8.65 14 1,650.00 1227 5,469.2 True x
11/17/1996 12:00    0.72 10 17.00 36.7 1.7 True x
11/26/1996 16:00    7.57 185.00 988.1 493.6 True x
12/2/1996 14:15    5.74 10 72.00 635.2 123.7 True x
12/11/1996 16:00    1.39 13 22.00 81.8 5.1 True x
12/16/1996 13:00    4.75 96.00 472.2 123.5 True x
12/23/1996 14:15    2.20 17.00 150.8 7.0 True x
12/27/1996 12:46    5.50 63.00 593.9 102.6 True x
12/27/1996 13:13    5.46 64.00 587.1 102.0 True x
1/7/1997 16:00    2.26 42.00 156.6 18.1 True x
1/21/1997 14:15    4.14 95.00 382 98.6 True x
1/27/1997 15:30    7.47 133.00 966.7 347.7 True x
2/4/1997 15:30    10.27 509.00 1623 2,231.6 True x
2/14/1997 16:00    1.88 20.00 121.5 6.8 True x
2/20/1997 13:38    1.43 10 16.00 84.8 3.8 True x
2/20/1997 13:52    1.43 10 17.00 84.8 4.0 True x
2/24/1997 16:30    1.97 11 42.00 129.5 14.8 True x
3/2/1997 12:00    16.15  549.00 3389 5,032.0 True x
3/10/1997 12:30    14.50  109.00 2844 842.8 True x
3/18/1997 14:30    12.94  30.00 2363 192.4 True x
3/19/1997 13:15    14.43 10 256.00 2822 1,952.8 True x
3/19/1997 13:48    14.38 10 240.00 2806 1,822.6 True x
3/28/1997 18:45    8.44 16 437.00 1179 1,392.1 True x
4/6/1997 17:30    13.10 16 274.00 2411 1,789.6 True x
4/12/1997 11:00    9.47 13 448.00 1422 1,723.7 True x
4/23/1997 16:00    3.22 15 58.00 261.4 41.1 True x
5/1/1997 15:45    1.80 18 26.00 114.5 8.3 True x
5/5/1997 12:42    6.34 12 111.00 743.6 223.7 True x
5/5/1997 13:05    6.34 12 109.00 743.6 219.4 True x
5/8/1997 14:15    2.95 19 62.00 229.7 38.5 True x
5/16/1997 13:15    1.26 18 28.00 72.4 5.6 True x
5/26/1997 17:00    5.04 20 658.00 517.9 921.3 True x
6/2/1997 14:45    18.03 19 196.00 4054 2,154.8 True x
6/9/1997 17:15    4.35 21 74.00 412.2 82.7 True x
6/17/1997 15:30    3.95 23 131.00 355.6 125.9 True x
6/19/1997 13:24    3.01 24 60.00 236.6 38.7 True x
6/19/1997 13:43    2.97 24 60.00 232 38.2 True x
6/27/1997 13:30    1.18 29 34.00 66.8 6.3 True x
7/16/1997 14:30    1.45 29 59.00 86.3 13.8 True x
7/28/1997 17:00    0.26 32 26.00 12.6 0.9 True x
8/3/1997 14:30    0.00 28 17.00 4.1 0.2 True x
8/8/1997 12:56    0.07 21 22.00 2.7 0.2 True x
8/12/1997 19:00    0.02 26 20.00 4.5 0.2 True x
8/19/1997 17:00    0.29 25 125.00 13.9 4.7 True x
8/29/1997 18:00    0.06 27 22.00 5.6 0.3 True x
9/8/1997 16:15    0.05 24 17.00 5.3 0.3 True x
9/17/1997 18:45    0.05 24 20.00 3.4 0.2 True x
9/22/1997 16:30    0.07 22 12.00 2.7 0.1 True x
10/28/1997 14:00    0.17 11 12.00 9.1 0.3 True x
11/2/1997 15:30    0.02 12 7.00 4.5 0.1 True x
11/10/1997 14:45    0.43 10 8.00 20.7 0.5 True x
11/14/1997 16:00    0.14 9.00 0.2 True x
11/30/1997 16:00    0.50 11 19.00 24.8 1.3 True x
12/3/1997 11:45    1.55 89.00 94 22.8 True x
12/12/1997 11:56    0.37 12.00 17.6 0.6 True x
12/12/1997 12:08    0.37 15.00 17.6 0.7 True x
12/17/1997 09:15    0.30 285.00 14.3 11.0 True x
12/29/1997 16:15    0.88 138.00 46.7 17.4 True x
1/4/1998 16:00    0.49 25.00 24.2 1.6 True x
1/8/1998 16:30    8.40 208.00 1165 655.0 True x
1/18/1998 15:45    1.54 11.00 93.2 2.8 True x
2/1/1998 16:45    0.97 4.00 52.9 0.7 True x
2/8/1998 16:00    0.75 9.00 38.4 1.0 True x
2/18/1998 12:15    11.87 293.00 2030 1,606.2 True x
2/28/1998 08:00    7.28 10 158.00 927.5 396.6 True x
3/6/1998 12:45    2.17 22.00 148 9.2 True x
3/6/1998 13:00    2.17 22.00 148 9.0 True x
3/10/1998 16:00    2.12 19.00 143.2 7.6 True x
3/16/1998 14:15    1.33 13.00 77.4 2.7 True x
3/23/1998 14:30    8.79 10 79.00 1252 269.2 True x
3/30/1998 15:30    2.66 21 39.00 197.6 21.2 True x
4/6/1998 17:30    2.17 15 30.00 148 12.2 True x
4/18/1998 17:45    6.95 14 109.00 861 255.0 True x
4/22/1998 11:51    7.17 15 44.00 905.1 108.4 True x
4/22/1998 12:04    7.17 15 36.00 905.1 88.0 True x
4/24/1998 16:00    6.24 15 33.00 725.1 65.3 True x
5/13/1998 15:30    4.99 24 25.00 509.9 35.2 True x
5/20/1998 15:00    0.72 25 22.00 36.7 2.2 True x
5/26/1998 06:45    0.78 23 50.00 40.3 5.5 True x
6/2/1998 15:30    0.36 29 27.00 17.1 1.3 True x
6/9/1998 13:30    18.85 21 1,224.00 4317 14,277.9 True x
6/19/1998 16:00    14.25 27 153.00 397.7 165.3 True x
6/23/1998 13:15    12.86 29 85.00 219.5 50.7 True x
6/30/1998 12:30    18.12  766.00 1104 2,283.5 True x
7/9/1998 13:30    11.07 30 33.00 59.5 5.3 True x
7/15/1998 15:30    10.60 26 26.00 29.9 2.2 True x
7/22/1998 14:45    10.20 31 16.00 10.3 0.4 True x
7/24/1998 13:24    10.12 26 19.00 7.4 0.4 True x
7/31/1998 11:30    11.78 25 147.00 112.8 44.9 True x
8/12/1998 17:30    11.78 27 48.00 112.8 14.9 True x
8/18/1998 15:30    10.54  24.00 26.8 1.8 True x
9/1/1998 17:00    10.04 25 15.00 0.2 True x
9/10/1998 15:30    9.95 25 25.00 3.1 0.2 True x
9/18/1998 14:30    9.97  19.00 3.4 0.2 True x
10/1/1998 15:00    9.95 23 12.00 3.1 0.1 True x
10/8/1998 12:30    12.58 18 96.00 189.1 49.4 True x
10/8/1998 14:17    12.57 17 102.00 188 52.1 True x
10/8/1998 14:31    12.57 17 94.00 188 48.1 True x
10/22/1998 15:15    10.28 15 9.00 13.5 0.3 True x
10/26/1998 13:15    10.08 17 28.00 6.1 0.5 True x
11/7/1998 12:45    9.96 11 54.00 3.2 0.5 True x
11/23/1998 16:30    10.93 11 12.00 50.1 1.7 True x
12/1/1998 14:45    10.32 12 9.00 15.2 0.4 True x
12/8/1998 10:30    12.17 12 41.00 148 16.7 True x
12/10/1998 13:23    11.16 39.00 65.5 6.9 True x
12/10/1998 13:40    11.16 31.00 65.5 5.5 True x
12/21/1998 15:45    11.15  90.00 64.8 15.9 True x
12/29/1998 15:00    11.52 22.00 91.7 5.5 True x
1/11/1999 14:30    12.24 26.00 154.7 11.1 True x
1/24/1999 17:15    30.38 217.00 4909 2,886.1 True x
2/1/1999 14:00    23.75 251.00 2577 1,753.1 True x
2/3/1999 13:32    20.34 81.00 1624 357.4 True x
2/3/1999 13:51    20.35 73.00 1627 323.3 True x
2/9/1999 10:30    16.50 12 64.00 773.7 134.2 True x
2/24/1999 16:00    11.34 13.00 78.1 2.8 True x
3/25/1999 11:55    13.27 11 27.00 267.5 20.0 True x
3/25/1999 12:09    13.27 11 27.00 267.5 19.7 True x
4/1/1999 15:30    11.55 15 17.00 94 4.5 True x
4/6/1999 17:00    23.66 18 298.00 2549 2,056.0 True x
4/9/1999 15:15    20.67 21 113.00 1709 525.6 True x
4/19/1999 12:45    15.05 13 37.00 519.5 53.3 True x
4/28/1999 15:00    12.97 20 68.00 232 43.2 True x
5/6/1999 13:00    17.45 19 159.00 962.6 415.6 True x
5/6/1999 15:43    17.39 19 161.00 950.2 413.7 True x
5/6/1999 16:07    17.42  164.00 956.4 425.0 True x
5/21/1999 14:30    10.77  20.00 39.7 2.1 True x
6/1/1999 15:15    10.29 24 32.00 13.9 1.2 True x
6/7/1999 13:45    13.79 26 116.00 333.9 104.7 True x
6/9/1999 14:45    11.34 27 38.00 78.1 8.1 True x
6/9/1999 15:20    11.33 27 39.00 77.4 8.3 True x
6/15/1999 14:30    10.64 25 28.00 32.1 2.4 True x
6/24/1999 13:00    10.79 25 31.00 40.9 3.5 True x
7/6/1999 19:15    10.25 29 26.00 12.2 0.9 True x
7/17/1999 19:40    10.05 28 22.00 5.3 0.3 True x
7/23/1999 14:47    10.74 30 35.00 37.8 3.7 True x
7/23/1999 15:30    10.74  32.00 37.8 3.4 True x
8/2/1999 13:00    10.00 29 16.00 4.1 0.2 True x
9/29/1999 13:00    9.71 19 25.00 0.3 0.0 True x
10/13/1999 13:15    10.12 20 31.00 13.7 1.1 True x
11/1/1999 09:30    9.68 14 15.00 1.5 0.1 True x
11/15/1999 14:00    9.62 14 114.00 0.7 0.2 True x
12/1/1999 13:15    9.82 10.00 4.1 0.1 True x
12/7/1999 15:30    9.83 17.00 4.4 0.2 True x
12/13/1999 13:30    12.89 10 50.00 259.1 35.6 True x
12/29/1999 13:30    9.95 18 14.00 7.6 0.3 True x
1/4/2000 14:30    24.25 413.00 2731 3,052.0 True x
1/13/2000 16:00    11.82 23.00 141.1 9.0 True x
1/18/2000 14:44    10.68 12.00 43.9 1.5 True x
1/18/2000 15:01    10.68  11.00 43.9 1.4 True x
2/1/2000 14:15    10.19 10.00 16.6 0.5 True x
2/9/2000 14:00    10.22 9.00 17.9 0.5 True x
2/22/2000 14:30    17.22 119.00 939.5 302.7 True x
2/28/2000 08:30    18.29 11 126.00 1151 392.1 True x
3/10/2000 08:30    10.91 13 29.00 60.5 4.8 True x
3/20/2000 13:15    22.58 10 390.00 2230 2,353.3 True x
3/27/2000 13:30    13.36 17 45.00 317.5 38.9 True x
4/12/2000 13:15    10.50 16 15.00 32.5 1.4 True x
4/17/2000 09:54    10.47 14 24.00 30.8 2.1 True x
4/17/2000 10:10    10.47  33.00 30.8 2.7 True x
5/4/2000 13:30    10.54 22 39.00 34.9 3.7 True x
5/10/2000 08:00    11.88 20 82.00 147.3 32.9 True x
5/26/2000 12:30    18.04 23 155.00 1100 462.3 True x
5/26/2000 13:11    18.08 21 136.00 1108 408.2 True x
5/26/2000 13:28    18.14  132.00 1121 401.3 True x
6/5/2000 12:15    11.96 23 56.00 155.7 23.8 True x
6/14/2000 16:00    10.27 28 48.00 20.2 2.7 True x
6/24/2000 12:30    16.07 25 123.00 729.9 242.8 True x
7/5/2000 13:00    10.33 27 19.00 23.2 1.2 True x
7/12/2000 11:44    9.95 28 10.00 7.6 0.2 True x
7/15/2000 09:30    9.91 28 15.00 6.5 0.3 True x
8/18/2000 11:15    9.75  18.00 2.6 0.1 True x
9/15/2000 12:00    10.19 23 38.00 16.6 1.7 True x
9/21/2000 09:15    9.76 18 9.00 2.8 0.1 True x
10/6/2000 14:22    9.78 19 9.00 7.8 0.2 True x
10/20/2000 08:00    9.67 13 50.00 0.5 True x
11/9/2000 07:30    14.23 14 597.00 481.1 775.5 True x
11/9/2000 14:22    13.04 12 190.00 324.9 167.3 True x
11/9/2000 14:36    13.01  180.00 321.2 156.4 True x
1/29/2001 15:45    10.28  33.00 32.4 2.9 True x
2/2/2001 14:06    11.71 40.00 165.1 18.2 True x
2/2/2001 14:24    11.68  42.00 161.6 18.6 True x
2/17/2001 10:00    17.11  227.00 929 569.4 True x
2/28/2001 10:51    14.87 92.00 571.1 142.7 True x
2/28/2001 15:30    14.71 91.00 548.1 135.9 True x
3/7/2001 10:32    12.79 46.00 293 36.9 True x
3/14/2001 10:32    13.22 11 116.00 347.3 109.3 True x
3/20/2001 13:00    11.60 30.00 152.6 12.7 True x
3/21/2001 14:24    11.33 11 25.00 124.1 8.6 True x
3/21/2001 14:38    11.33  26.00 124.1 8.9 True x
3/30/2001 10:10    10.63 10 15.00 58.1 2.5 True x
4/12/2001 10:29    11.13 21 30.00 104.7 8.7 True x
4/19/2001 15:16    10.57 16 12.00 53.3 1.9 True x
4/27/2001 10:43    10.36 18 19.00 37.6 1.9 True x
5/10/2001 13:23    9.94 23 18.00 14.3 0.7 True x
5/10/2001 13:39    9.94  19.00 14.3 0.7 True x
5/15/2001 10:27    9.87 22 17.00 11.2 0.5 True x
5/31/2001 11:02    9.93 20 30.00 13.8 1.1 True x
6/14/2001 10:34    9.78 27 17.00 7.8 0.4 True x
6/21/2001 13:02    11.96 27 542.00 195 285.7 True x
6/21/2001 13:18    11.96  516.00 195 271.8 True x
6/29/2001 10:31    9.73 23 19.00 5.9 0.3 True x
7/6/2001 13:11    9.69 28 13.00 4.6 0.2 True x
7/13/2001 10:19    9.59 25 10.00 2.1 0.1 True x
7/26/2001 13:12    15.78 25 2,467.00 706.1 4,703.4 True x
7/26/2001 13:31    15.96  2,383.00 733.8 4,722.0 True x
8/1/2001 10:36    10.62 28 49.00 57.3 7.7 True x
8/15/2001 10:18    9.88 25 23.00 11.6 0.7 True x
8/21/2001 10:57    11.04 23 93.00 96.5 24.4 True x
8/31/2001 11:19    9.76 25 48.00 0.9 True x
9/7/2001 11:23    9.71 26 19.00 5.2 0.3 True x
9/14/2001 10:12    9.90 21 11.00 12.4 0.4 True x
9/18/2001 10:26    9.67 21 9.00 0.1 True x
9/26/2001 14:18    9.61 18 10.00 2.5 0.1 True x
10/4/2001 13:31    9.52 19 9.00 0.0 True x
10/11/2001 10:29    9.77 16 11.00 7.4 0.2 True x
10/16/2001 13:36    15.71 15 133.00 695.4 250.0 True x
10/26/2001 13:31    13.93 14 92.00 440.4 109.7 True x
10/26/2001 13:48    13.93  95.00 440.4 113.1 True x
10/31/2001 10:39    10.54 11 17.00 51 2.5 True x
11/7/2001 14:42    10.24 13 10.00 29.9 0.9 True x
11/13/2001 11:48    10.08 10 8.00 21.2 0.5 True x
11/19/2001 14:42    10.06 11 7.00 20.2 0.4 True x
11/30/2001 10:42    25.34 269.00 3057 2,220.7 True x
12/7/2001 14:08    16.18 11 67.00 769.6 139.6 True x
12/7/2001 14:27    16.16  59.00 766.3 122.5 True x
12/12/2001 11:46    12.43 30.00 248.9 20.5 True x
12/18/2001 15:01    34.09 10 63.00 6449 1,101.4 True x
12/19/2001 15:07    34.44 46.00 6607 828.5 True x
12/28/2001 10:46    12.42 16.00 247.7 10.9 True x
1/3/2002 14:16    10.91 16.00 86.7 3.8 True x
1/8/2002 13:33    10.81 13.00 73.9 2.8 True x
1/18/2002 14:11    10.53 11.00 50.2 1.5 True x
1/18/2002 14:26    10.53  11.00 50.2 1.6 True x
1/23/2002 14:34    11.34 19.00 125.1 6.5 True x
1/31/2002 11:17    17.99 11 130.00 1094 385.4 True x
2/5/2002 13:34    18.99 67.00 1298 234.9 True x
2/14/2002 14:03    11.26 21.00 117.1 6.8 True x
2/20/2002 14:23    15.31 10 153.00 635.3 263.8 True x
2/28/2002 10:58    11.49 35.00 140.7 13.5 True x
3/7/2002 13:11    11.54 23.00 146.1 9.1 True x
3/7/2002 13:31    11.54  24.00 146.1 9.8 True x
3/14/2002 10:56    13.59 12 46.00 394.9 49.1 True x
3/25/2002 12:49    18.74 52.00 1246 176.3 True x
4/1/2002 13:28    16.86 13 46.00 885.2 110.3 True x
4/9/2002 11:47    12.10 14 31.00 211 17.8 True x
4/18/2002 15:09    18.86 24 64.00 1271 222.7 True x
4/18/2002 15:30    18.83  67.00 1264 229.9 True x
4/23/2002 15:17    18.53 19 82.00 1202 268.0 True x
5/1/2002 10:48    20.64 18 1,088.00 1693 4,974.4 True x
5/7/2002 11:51    14.98 20 45.00 587.1 71.8 True x
5/16/2002 15:02    29.96 19 44.00 4715 571.8 True x
5/16/2002 15:17    29.91  45.00 4696 574.3 True x
5/31/2002 10:16    12.19 22 38.00 221.1 23.0 True x
6/7/2002 12:06    13.51 23 84.00 384.4 88.2 True x
6/14/2002 10:38    10.59 25 35.00 54.9 5.3 True x
6/20/2002 14:42    9.99 27 25.00 16.9 1.2 True x
6/28/2002 10:04    10.01 26 24.00 17.9 1.2 True x
7/10/2002 13:33    9.81 29 20.00 0.5 True x
7/18/2002 13:12    9.71 27 21.00 5.2 0.3 True x
7/25/2002 11:47    9.56 29 15.00 1.5 0.1 True x
7/31/2002 10:21    9.51 28 13.00 0.0 True x
8/7/2002 12:01    9.50 28 14.00 0.8 0.0 True x
8/16/2002 11:59    9.52 26 33.00 0.1 True x
8/22/2002 11:28    9.46 28 13.00 0.4 0.0 True x
8/30/2002 10:44    9.47 25 12.00 0.5 0.0 True x
9/5/2002 12:57    9.44 28 13.00 0.3 0.0 True x
9/10/2002 14:49    9.37 29 8.00 0.1 0.0 True x
9/19/2002 12:43    9.33 25 7.00 0.1 0.0 True x
9/24/2002 13:09    9.88 22 19.00 11.6 0.6 True x
9/30/2002 13:26    10.21 23 28.00 28.1 2.2 True x
10/10/2002 13:00    9.83 16 23.00 14.4 0.9 True x
10/10/2002 13:12    9.83  26.00 14.4 1.0 True x
10/16/2002 13:11    9.46 14 12.00 3.4 0.1 True x
10/31/2002 10:37    11.87 11 31.00 127 10.9 True x
11/4/2002 13:09    9.81 9.00 13.7 0.3 True x
11/14/2002 12:35    13.11 11 34.00 250 23.2 True x
11/19/2002 15:40    10.63 16.00 50.8 2.2 True x
11/27/2002 10:48    9.94 12.00 18.7 0.6 True x
12/3/2002 13:42    9.76 8.00 11.9 0.3 True x
12/9/2002 13:58    9.86 7.00 15.6 0.3 True x
12/17/2002 14:38    12.41 17.00 175 8.3 True x
12/23/2002 13:53    18.03 70.00 1106 209.2 True x
1/2/2003 11:07    24.67 105.00 2820 805.9 True x
1/7/2003 15:19    16.58 29.00 801 63.8 True x
1/7/2003 15:34    16.58  29.00 801 63.3 True x
1/14/2003 13:35    11.83 15.00 124 5.3 True x
1/21/2003 13:12    10.79 11.00 59.3 1.8 True x
1/27/2003 12:59    10.32 12.00 35.3 1.2 True x
2/4/2003 14:33    12.13 32.00 149 13.0 True x
2/11/2003 14:09    11.31 18.00 88.8 4.4 True x
2/19/2003 15:19    22.11 826.00 2070 4,617.3 True x
2/25/2003 14:16    22.54 65.00 21.9 3.9 True x
3/4/2003 15:17    16.50 27.00 784 59.2 True x
3/11/2003 13:33    11.61 17.00 108 5.1 True x
3/18/2003 14:14    11.46 14 21.00 98.2 5.6 True x
3/20/2003 12:54    17.29 15 163.00 952 420.6 True x
3/25/2003 13:24    13.85 16 40.00 349 38.6 True x
4/1/2003 15:44    11.71 15 20.00 115 6.3 True x
4/4/2003 09:51    11.14 18 26.00 78.6 5.5 True x
4/4/2003 10:08    11.14  22.00 78.6 4.7 True x
4/9/2003 13:12    15.42 11 64.00 582 101.1 True x
4/16/2003 15:05    11.17 20 29.00 80.4 6.4 True x
4/22/2003 12:51    12.32 17 41.00 166 18.5 True x
5/1/2003 13:24    16.69 19 172.00 823 383.6 True x
5/5/2003 13:25    26.60 19 298.00 3450 2,781.4 True x
5/15/2003 14:17    19.86 21 46.00 1500 189.3 True x
5/20/2003 12:37    17.04 20 50.00 897 121.1 True x
5/20/2003 12:55    17.04  48.00 897 116.9 True x
5/29/2003 10:19    12.68 18 42.00 202 23.1 True x
6/10/2003 14:04    10.88 19 137.00 64.1 23.8 True x
6/12/2003 09:35    13.43 21 504.00 291 396.3 True x
6/18/2003 12:06    16.13 23 55.00 712 107.2 True x
6/18/2003 12:20    16.11  53.00 708 101.8 True x
6/23/2003 13:28    11.72 25 28.00 116 8.9 True x
6/30/2003 13:24    10.78 25 37.00 58.7 5.9 True x
7/8/2003 14:04    9.85 29 19.00 15.2 0.8 True x
7/16/2003 12:13    9.87 28 28.00 16 1.2 True x
7/21/2003 14:48    11.11 27 50.00 76.9 10.4 True x
7/28/2003 11:49    9.68 28 29.00 9.2 0.7 True x
8/4/2003 13:13    10.28 26 56.00 33.4 5.1 True x
8/4/2003 13:25    10.28  61.00 33.4 5.5 True x
8/11/2003 13:57    9.61 26 26.00 6.9 0.5 True x
8/18/2003 13:33    9.46 30 23.00 3.4 0.2 True x
8/26/2003 11:44    9.45 27 16.00 3.2 0.1 True x
9/2/2003 15:27    17.21 24 372.00 934 940.1 True x
9/8/2003 12:11    12.43 22 36.00 177 17.4 True x
9/17/2003 13:39    9.89 19 15.00 16.8 0.7 True x
9/25/2003 13:07    9.71 20 13.00 10.2 0.4 True x
10/2/2003 13:50    9.65 15 9.00 8.1 0.2 True x
10/7/2003 13:15    9.54 18 7.00 5.1 0.1 True x
10/14/2003 14:21    9.45 17 8.00 3.2 0.1 True x
10/28/2003 13:29    9.54 12 7.00 5.1 0.1 True x
11/3/2003 13:04    9.56 19 6.00 5.6 0.1 True x
11/10/2003 14:22    9.62 11 4.00 7.2 0.1 True x
11/19/2003 14:45    17.23 15 100.00 938 254.6 True x
11/26/2003 09:46    14.93 38.00 501 52.6 True x
12/1/2003 13:49    12.83 25.00 218 14.9 True x
12/15/2003 14:37    10.87 12.00 63.6 2.2 True x
12/22/2003 12:02    10.43 12.00 40.7 1.4 True x
1/5/2004 12:47    18.97 140.00 1290 487.9 True x
1/12/2004 15:13    11.85 14.00 126 4.9 True x
1/20/2004 14:18    14.01 32.00 373 32.3 True x
1/20/2004 14:34    14.01  49.00 373 49.8 True x
1/26/2004 14:31    14.41 57.00 426 65.7 True x
2/3/2004 13:38    15.88 163.00 665 294.2 True x
2/10/2004 13:53    13.75 25.00 335 22.9 True x
2/17/2004 13:06    11.73 17.00 117 5.4 True x
2/23/2004 12:57    11.11 19.00 76.9 4.0 True x
3/2/2004 14:39    14.81 14 126.00 484 165.8 True x
3/9/2004 14:44    16.68 12 81.00 821 181.7 True x
3/9/2004 14:59    16.68  72.00 821 160.6 True x
3/16/2004 13:12    11.86 11 23.00 127 8.2 True x
3/23/2004 12:46    12.06 18 34.00 143 13.2 True x
4/1/2004 12:44    13.83 19 62.00 346 58.8 True x
4/7/2004 14:56    11.04 23 27.00 72.9 5.4 True x
4/13/2004 13:25    10.51 12 16.00 44.7 2.0 True x
4/20/2004 13:27    10.13 21 24.00 26.7 1.8 True x
4/23/2004 09:31    11.38 17 466.00 93.1 117.2 True x
4/23/2004 09:51    11.78  459.00 120 149.0 True x
4/27/2004 13:23    13.21 17 80.00 262 57.2 True x
5/4/2004 13:15    12.26 15 57.00 161 24.9 True x
5/10/2004 12:01    10.47 22 69.00 42.7 8.0 True x
5/17/2004 13:01    16.34 19 121.00 752 247.3 True x
5/25/2004 12:02    10.56 24 30.00 47.2 3.9 True x
6/1/2004 14:22    14.83 23 128.00 487 168.9 True x
6/8/2004 13:34    11.03 24 52.00 72.4 10.3 True x
6/17/2004 11:45    15.46 25 170.00 589 270.6 True x
6/17/2004 11:56    15.46  181.00 589 288.6 True x
6/22/2004 13:48    12.41 23 61.00 175 29.2 True x
7/1/2004 11:25    10.01 24 26.00 21.6 1.6 True x
7/12/2004 13:20    10.08 28 32.00 24.5 2.2 True x
7/27/2004 12:12    9.77 23 23.00 12.2 0.8 True x
8/3/2004 13:08    9.91 27 25.00 17.6 1.2 True x
8/10/2004 13:03    9.71 27 13.00 10.2 0.4 True x
8/17/2004 13:32    9.34 23 10.00 1.5 0.0 True x
8/24/2004 13:16    9.34 24 11.00 1.5 0.0 True x
9/2/2004 11:48    9.58 24 20.00 6.1 0.3 True x
9/8/2004 13:09    9.41 23 12.00 2.5 0.1 True x
9/16/2004 11:47    9.29 23 10.00 1.1 0.0 True x
9/21/2004 11:53    9.27 21 8.00 0.9 0.0 True x
9/27/2004 11:33    9.27 20 7.00 0.9 0.0 True x
10/5/2004 13:22    9.27 17 25.00 0.9 0.1 True x
10/12/2004 14:43    9.21 17 93.00 0.6 0.1 True x
10/18/2004 12:34    9.51 14 11.00 4.5 0.1 True x
10/25/2004 11:45    9.37 17 5.00 1.9 0.0 True x
11/1/2004 12:00    10.06 18 8.00 23.7 0.5 True x
11/4/2004 14:52    13.74 14 47.00 333 42.3 True x
11/4/2004 15:09    13.71  44.00 329 39.9 True x
11/9/2004 13:39    10.19 11 15.00 29.3 1.2 True x
11/15/2004 12:41    10.93 10 16.00 66.8 3.0 True x
11/22/2004 11:58    11.06 12 9.00 74.1 1.9 True x
12/2/2004 13:36    16.29 67.00 743 135.2 True x
12/6/2004 13:06    16.51 65.00 786 138.8 True x
12/13/2004 12:35    15.41 20.00 581 31.6 True x
12/20/2004 12:58    11.53 12.00 103 3.5 True x
1/4/2005 15:11    20.36 10 129.00 1620 564.6 True x
1/5/2005 13:16    22.23 10 208.00 2100 1,180.4 True x
1/10/2005 12:43    21.31 55.00 1860 278.9 True x
1/19/2005 12:42    20.67 24.00 1690 109.7 True x
1/25/2005 13:09    18.81 13.00 1260 44.3 True x
2/1/2005 13:40    11.74 15.00 117 4.8 True x
2/8/2005 13:50    20.06 272.00 1540 1,134.4 True x
2/8/2005 14:06    20.00  253.00 1530 1,047.6 True x
2/15/2005 13:51    16.56 11 64.00 796 138.8 True x
2/23/2005 11:56    12.26 21.00 161 9.5 True x
3/3/2005 13:17    11.46 14.00 98.2 3.7 True x
3/8/2005 11:47    10.93 12.00 66.8 2.2 True x
3/16/2005 13:27    10.39 9.00 38.7 1.0 True x
3/16/2005 13:42    10.39  10.00 38.7 1.1 True x
3/22/2005 11:45    10.41 10 30.00 39.7 3.2 True x
3/31/2005 09:03    22.78 13 127.00 2260 778.5 True x
4/6/2005 11:52    14.41 16 37.00 426 43.0 True x
4/12/2005 13:34    12.92 18 37.00 228 22.8 True x
4/19/2005 13:33    11.26 20 26.00 85.7 6.2 True x
4/22/2005 09:57    10.92 20 24.00 66.3 4.3 True x
4/22/2005 10:11    10.92  24.00 66.3 4.5 True x
4/25/2005 13:18    11.52 14 19.00 102 5.3 True x
5/2/2005 13:52    13.49 14 44.00 299 35.6 True x
5/10/2005 13:15    10.73 20 26.00 56.1 3.9 True x
5/17/2005 14:12    15.48 19 78.00 593 126.2 True x
5/23/2005 12:44    11.19 21 31.00 81.6 6.9 True x
6/1/2005 13:46    9.84 23 19.00 14.8 0.8 True x
6/7/2005 13:37    9.72 26 18.00 10.5 0.5 True x
6/13/2005 13:23    11.41 25 51.00 95 13.3 True x
6/21/2005 13:20    9.63 25 37.00 7.5 0.8 True x
6/27/2005 12:06    9.48 28 23.00 3.8 0.2 True x
7/12/2005 13:59    10.83 23 83.00 61.4 13.8 True x
7/18/2005 13:16    12.82 25 125.00 217 73.5 True x
7/18/2005 13:30    12.82  136.00 217 79.8 True x
7/25/2005 11:44    9.80 30 28.00 13.3 1.0 True x
8/2/2005 12:52    9.49 28 15.00 0.2 True x
8/17/2005 13:10    12.01 25 128.00 139 48.3 True x
8/24/2005 13:27    9.80 27 32.00 13.3 1.2 True x
9/1/2005 12:01    10.04 24 54.00 22.8 3.3 True x
9/7/2005 12:54    9.72 25 16.00 10.5 0.5 True x
9/13/2005 11:57    9.52 25 9.00 4.7 0.1 True x
9/20/2005 13:40    9.48 25 11.00 3.8 0.1 True x
9/26/2005 13:05    10.29 24 28.00 33.9 2.6 True x
10/3/2005 10:49    9.52 21 6.00 4.7 0.1 True x
10/11/2005 12:22    9.31 16 7.00 1.2 0.0 True x
10/18/2005 12:47    9.30 18 6.00 1.2 0.0 True x
10/24/2005 12:44    9.57 14 8.00 5.8 0.1 True x
11/1/2005 13:27    9.36 14 4.00 1.8 0.0 True x
11/8/2005 12:04    9.37 17 4.00 1.9 0.0 True x
11/18/2005 13:12    17.08 143.00 906 350.3 True x
11/18/2005 13:28    17.11  158.00 912 390.8 True x
11/21/2005 13:53    16.31 61.00 747 124.5 True x
12/1/2005 11:45    12.58 39.00 192 20.4 True x
12/5/2005 13:11    10.53 26.00 45.7 3.2 True x
12/12/2005 11:25    10.11 18.00 25.8 1.3 True x
12/19/2005 13:05    10.04 14.00 22.8 0.9 True x
12/27/2005 13:07    9.93 11.00 18.3 0.6 True x
1/4/2006 13:11    10.03 11.00 22.4 0.7 True x
1/4/2006 13:23    10.03  11.00 22.4 0.7 True x
1/11/2006 14:05    16.57 193.00 798 417.5 True x
1/18/2006 11:55    14.86 56.00 491 74.7 True x
1/24/2006 13:10    15.41 86.00 581 136.3 True x
2/3/2006 14:15    22.44 337.00 2160 1,969.4 True x
2/8/2006 12:48    15.38 46.00 575 72.0 True x
2/14/2006 14:09    11.49 24.00 100 6.6 True x
2/14/2006 14:24    11.49  17.00 100 4.7 True x
2/22/2006 15:20    12.03 40.00 140 15.3 True x
3/2/2006 12:43    10.14 11 21.00 27.1 1.5 True x
3/8/2006 11:45    10.43 34.00 40.7 3.8 True x
3/14/2006 13:24    31.69 14 73.00 5390 1,065.2 True x
3/22/2006 13:44    16.88 93.00 863 218.3 True x
3/27/2006 13:10    12.41 31.00 175 14.7 True x
4/4/2006 12:05    15.63 13 151.00 619 253.6 True x
4/11/2006 13:19    12.65 15 34.00 199 18.8 True x
4/18/2006 11:27    10.89 20 25.00 64.6 4.4 True x
4/24/2006 13:14    10.76 20 19.00 57.6 3.0 True x
5/2/2006 15:04    17.92 17 140.00 1080 408.9 True x
5/4/2006 11:27    16.67 17 117.00 819 258.8 True x
5/4/2006 11:44    16.60  79.00 805 172.5 True x
5/8/2006 12:34    12.16 19 30.00 152 12.6 True x
5/17/2006 12:03    12.62 28.00 196 15.2 True x
5/24/2006 13:25    10.47 22 19.00 42.7 2.2 True x
6/2/2006 12:04    15.41 23 218.00 581 343.5 True x
6/14/2006 13:31    9.64 26 17.00 7.8 0.4 True x
6/21/2006 13:04    10.97 26 42.00 69 7.9 True x
6/21/2006 13:16    10.96  46.00 68.5 8.6 True x
6/26/2006 13:29    14.56 23 364.00 448 440.7 True x
7/5/2006 13:01    9.47 27 20.00 3.6 0.2 True x
7/12/2006 14:03    16.87 24 472.00 861 1,097.5 True x
7/19/2006 12:05    11.06 28 29.00 74.1 5.9 True x
8/3/2006 13:30    9.47 30 14.00 3.6 0.1 True x
8/9/2006 11:52    9.35 30 11.00 1.6 0.0 True x
8/16/2006 11:56    9.64 26 13.00 7.8 0.3 True x
8/22/2006 15:11    10.39 26 40.00 38.7 4.2 True x
8/28/2006 13:44    11.17 25 34.00 80.4 7.4 True x
9/6/2006 13:20    9.55 23 18.00 5.3 0.3 True x
9/12/2006 13:24    13.23 21 73.00 265 52.4 True x
9/12/2006 13:38    13.29  76.00 272 56.0 True x
9/19/2006 12:54    10.16 20 42.00 28 3.2 True x
9/25/2006 14:42    23.48 19 154.00 2460 1,023.5 True x
10/3/2006 13:38    11.76 20 12.00 130 4.5 True x
10/10/2006 13:44    9.94 17 7.00 20.1 0.4 True x
10/19/2006 14:14    16.88 13 45.00 850 103.8 True x
10/19/2006 14:25    16.88  42.00 850 98.5 True x
10/23/2006 11:57    11.95 11 12.00 146 4.9 True x
11/2/2006 13:44    16.34 10 29.00 747 59.9 True x
11/8/2006 13:28    13.98 11 18.00 371 18.1 True x
11/14/2006 11:54    13.16 18.00 271 13.7 True x
11/20/2006 13:26    17.25 35.00 925 89.2 True x
11/27/2006 13:24    11.56 13.00 114 4.3 True x
11/27/2006 13:38    11.56  12.00 114 4.0 True x
12/4/2006 13:21    17.06 38.00 886 91.5 True x
12/11/2006 12:57    11.62 15.00 118 5.0 True x
12/18/2006 12:45    12.93 19.00 245 12.6 True x
12/26/2006 13:36    20.70 98.00 1740 460.7 True x
1/3/2007 15:11    15.79 35.00 648 61.6 True x
1/10/2007 13:27    14.02 23.00 377 24.0 True x
1/10/2007 13:43    14.01  29.00 375 29.5 True x
1/16/2007 15:02    28.89 112.00 4570 1,391.2 True x
1/24/2007 12:42    15.99 28.00 683 52.9 True x
2/2/2007 09:17    11.68 11.00 123 3.9 True x
2/6/2007 13:23    11.21 9.00 88.3 2.2 True x
2/15/2007 13:42    17.66 91.00 1010 250.7 True x
2/21/2007 14:02    14.50 47.00 443 56.2 True x
2/21/2007 14:16    14.50  45.00 443 53.9 True x
2/26/2007 14:16    19.93 173.00 1540 721.0 True x
3/6/2007 13:53    12.89 18.00 240 11.8 True x
3/13/2007 13:26    11.63 13 15.00 119 5.1 True x
3/20/2007 13:49    11.94 11 18.00 145 7.2 True x
3/26/2007 13:10    12.18 19 25.00 167 11.6 True x
4/3/2007 13:36    12.16 20 39.00 165 17.7 True x
4/6/2007 12:52    12.90 12 42.00 241 27.7 True x
4/11/2007 14:21    14.06 12 36.00 382 37.5 True x
4/17/2007 13:42    17.41 14 72.00 958 186.3 True x
4/25/2007 13:00    12.74 21 42.00 224 25.5 True x
5/3/2007 15:33    12.32 21 35.00 180 17.1 True x
5/11/2007 14:09    12.89 24 56.00 240 36.7 True x
5/17/2007 14:26    11.48 20 47.00 108 13.8 True x
5/17/2007 14:41    11.48  43.00 108 12.6 True x
5/23/2007 13:36    10.22 23 25.00 32.5 2.2 True x
5/29/2007 13:33    10.01 26 17.00 23.2 1.1 True x
6/5/2007 14:14    10.64 24 33.00 53.9 4.8 True x
6/12/2007 13:56    9.75 26 15.00 12.1 0.5 True x
6/19/2007 13:47    9.59 27 8.00 7.2 0.2 True x
6/25/2007 12:31    11.07 26 38.00 79.1 8.3 True x
7/3/2007 13:11    9.85 26 24.00 16.1 1.1 True x
7/18/2007 14:40    9.58 30 9.00 0.2 True x
7/24/2007 13:59    9.77 27 15.00 12.9 0.5 True x
8/1/2007 12:02    9.48 28 8.00 4.8 0.1 True x
8/17/2007 13:31    9.42 31 5.00 3.7 0.1 True x
8/22/2007 11:53    9.40 30 5.00 3.4 0.0 True x
8/28/2007 13:22    9.40 30 5.00 3.4 0.0 True x
9/5/2007 13:34    9.38 26 3.00 0.0 True x
9/11/2007 13:03    9.68 25 6.00 9.7 0.2 True x
9/18/2007 13:53    9.37 24 25.00 2.9 0.2 True x
9/25/2007 13:41    9.41 24 15.00 3.6 0.2 True x
10/4/2007 13:24    9.37 25 4.00 2.9 0.0 True x
10/10/2007 13:48    9.36 22 23.00 2.7 0.2 True x
10/15/2007 12:53    9.33 18 6.00 2.2 0.0 True x
10/23/2007 13:50    11.63 15 98.00 119 31.6 True x
11/1/2007 13:33    10.08 13 8.00 26.2 0.6 True x
11/7/2007 14:36    9.69 10 8.00 10.1 0.2 True x
11/14/2007 13:17    9.53 12 5.00 5.8 0.1 True x
11/19/2007 15:10    9.83 10 6.00 15.3 0.3 True x
11/26/2007 11:55    11.06 11.00 78.4 2.4 True x
12/3/2007 13:44    14.52 100.00 446 121.2 True x
12/11/2007 14:34    22.41 178.00 2230 1,076.6 True x
12/11/2007 14:52    22.33  169.00 2200 1,008.7 True x
12/26/2007 12:43    14.04 22.00 379 22.6 True x
1/7/2008 13:19    11.16 10.00 84.9 2.3 True x
1/15/2008 13:17    15.36 30.00 576 47.2 True x
1/23/2008 13:18    11.04 16.00 77.2 3.5 True x
1/28/2008 13:34    10.56 13.00 49.8 1.8 True x
2/4/2008 13:25    13.76 62.00 343 58.3 True x
2/7/2008 13:54    25.30 311.00 3170 2,668.8 True x
2/7/2008 14:11    25.34  301.00 3190 2,593.6 True x
2/19/2008 14:26    19.26 44.00 1380 167.5 True x
2/25/2008 13:50    16.84 28.00 842 64.9 True x
3/5/2008 14:21    22.69 122.00 2310 763.7 True x
3/11/2008 13:33    16.29 20.00 737 40.8 True x
3/24/2008 15:11    28.94 33.00 2370 211.9 True x
3/28/2008 13:22    22.23 13 36.00 868 86.0 True x
4/4/2008 14:59    30.06 12 112.00 380 115.5 True x
4/9/2008 14:43    23.64 15 30.00 1720 140.9 True x
4/17/2008 13:42    18.07 15 20.00 488 26.9 True x
4/23/2008 13:48    12.51 20 18.00 199 9.9 True x
4/23/2008 14:00    12.51  18.00 199 9.7 True x
5/1/2008 13:24    11.58 16 16.00 115 5.1 True x
5/9/2008 11:56    12.47 18 22.00 195 11.7 True x
5/15/2008 13:34    12.13 16 29.00 162 12.9 True x
5/20/2008 13:36    11.40 20 22.00 102 6.3 True x
5/27/2008 14:38    20.71 22 137.00 1740 645.9 True x
6/10/2008 13:58    12.58 26 72.00 206 40.2 True x
6/18/2008 13:51    10.40 26 21.00 41.5 2.4 True x
6/18/2008 14:05    10.40  23.00 41.5 2.6 True x
6/25/2008 13:39    9.83 27 13.00 15.3 0.5 True x
7/3/2008 09:53    9.46 25 12.00 4.4 0.1 True x
7/8/2008 12:59    9.24 29 5.00 1.2 0.0 True x
7/17/2008 12:01    9.79 27 17.00 13.7 0.6 True x
7/22/2008 11:53    9.43 27 14.00 3.9 0.2 True x
7/28/2008 11:39    9.41 27 8.00 3.6 0.1 True x
8/12/2008 13:10    9.47 26 18.00 4.6 0.2 True x
8/19/2008 13:08    9.18 26 13.00 0.7 0.0 True x
8/25/2008 12:02    10.76 24 39.00 60.5 6.4 True x
9/2/2008 11:43    9.16 27 11.00 0.6 0.0 True x
9/9/2008 13:13    9.06 23 6.00 0.3 0.0 True x
9/17/2008 13:19    9.03 23 3.00 0.2 0.0 True x
9/24/2008 12:02    9.59 22 7.00 7.2 0.1 True x
10/2/2008 13:22    9.02 20 2.00 0.2 0.0 True x
10/10/2008 13:29    11.49 18 40.00 108 11.8 True x
10/14/2008 11:46    9.26 20 8.00 1.4 0.0 True x
10/21/2008 13:38    8.97 17 6.00 0.1 0.0 True x
10/28/2008 12:04    9.82 10 8.00 14.9 0.3 True x
11/4/2008 15:08    9.08 13 19.00 0.3 0.0 True x
11/12/2008 13:08    9.12 5.00 0.4 0.0 True x
11/21/2008 13:01    9.84 11.00 15.7 0.5 True x
11/25/2008 13:30    9.59 10.00 7.2 0.2 True x
12/4/2008 13:53    9.60 11.00 7.5 0.2 True x
12/10/2008 14:21    14.12 92.00 390 97.5 True x
12/18/2008 14:07    11.48 22.00 108 6.5 True x
12/22/2008 14:01    11.69 28.00 124 9.5 True x
1/7/2009 14:31    10.91 16.00 69.2 3.0 True x
1/14/2009 13:45    10.36 15.00 39.4 1.6 True x
1/21/2009 13:41    9.87 12.00 17 0.6 True x
2/5/2009 15:17    13.40 28.00 299 22.9 True x
2/13/2009 13:12    20.24 78.00 1620 345.4 True x
2/13/2009 13:25    20.20  70.00 1610 305.9 True x
2/19/2009 14:22    14.64 23.00 464 29.9 True x
2/25/2009 15:02    11.53 17.00 111 5.3 True x
3/4/2009 14:55    12.26 35.00 174 16.8 True x
3/11/2009 15:01    20.41 13 501.00 1670 2,259.5 True x
3/18/2009 13:54    11.93 15 22.00 144 8.6 True x
3/25/2009 13:52    20.19 15 400.00 1610 1,742.5 True x
4/1/2009 13:47    14.98 13 35.00 515 49.8 True x
4/1/2009 14:02    14.98  35.00 515 48.7 True x
4/8/2009 13:11    15.02 12 27.00 521 38.9 True x
4/14/2009 11:32    18.19 12 71.00 1130 218.9 True x
4/20/2009 13:13    22.10 16 190.00 2140 1,098.3 True x
4/27/2009 13:40    13.65 24 27.00 329 24.1 True x
5/12/2009 13:29    19.46 21 50.00 1420 193.3 True x
5/19/2009 13:25    17.03 20 43.00 880 103.5 True x
5/19/2009 13:35    17.02  43.00 878 104.0 True x
5/26/2009 13:15    16.15 22 378.00 712 727.7 True x
6/4/2009 13:03    13.18 23 130.00 273 96.4 True x
6/9/2009 13:23    14.08 23 214.00 385 223.1 True x
6/16/2009 14:04    16.51 23 259.00 779 546.8 True x
6/16/2009 14:18    16.61  259.00 798 559.3 True x
6/23/2009 13:05    11.05 31 31.00 77.8 6.6 True x
6/29/2009 11:58    9.89 30 17.00 17.9 0.8 True x
7/7/2009 13:52    9.76 28 17.00 12.5 0.6 True x
7/14/2009 13:06    15.27 25 133.00 561 202.3 True x
7/20/2009 13:14    10.72 25 37.00 58.3 5.8 True x
7/27/2009 11:58    10.14 27 24.00 28.9 1.9 True x
8/11/2009 13:15    9.90 28 23.00 18.4 1.2 True x
8/18/2009 12:58    9.37 29 10.00 2.9 0.1 True x
8/26/2009 13:23    9.68 26 20.00 9.7 0.5 True x
9/2/2009 13:10    9.22 24 131.00 0.4 True x
9/9/2009 13:25    11.24 24 55.00 90.3 13.5 True x
9/15/2009 13:14    9.37 25 13.00 2.9 0.1 True x
9/22/2009 13:49    9.45 26 10.00 4.2 0.1 True x
9/29/2009 11:49    9.80 21 15.00 14.1 0.6 True x
10/5/2009 13:02    9.33 18 11.00 14 0.4 False x
10/13/2009 12:08    16.25 15 55.00 730 109.4 False x
10/20/2009 13:22    11.93 14 19.00 154 8.1 False x
10/27/2009 12:01    11.57 14 19.00 127 6.8 False x
11/5/2009 12:07    14.91 13 29.00 504 40.4 False x
11/11/2009 11:42    11.23 15 11.00 105 3.2 False x
11/17/2009 14:02    10.58 13 12.00 67 2.2 False x
11/23/2009 12:10    10.61 11 19.00 68 3.5 False x
12/1/2009 11:38    10.41 7.00 58 1.1 False x
12/7/2009 13:15    12.00 21.00 159 9.4 False x
12/14/2009 13:21    13.64 23.00 330 21.1 False x
12/14/2009 13:33    13.64  22.00 330 20.2 False x
12/21/2009 13:01    11.26 12.00 107 3.5 False x
1/4/2010 14:09    12.60 18.00 214 10.8 False x
1/13/2010 11:56    10.50 13.00 63 2.3 False x
1/19/2010 13:40    11.38 30.00 115 9.3 False x
1/25/2010 12:00    18.87 73.00 1280 254.2 False x
2/3/2010 13:39    13.55 17.00 319 14.8 False x
2/8/2010 12:44    16.80 44.00 834 99.8 False x
2/16/2010 13:17    11.90 15.00 151 6.1 False x
2/23/2010 12:59    11.44 13.00 118 4.4 False x
3/3/2010 13:26    10.66 10.00 71 2.0 False x
3/9/2010 13:41    10.35 11 14.00 56 2.2 False x
3/16/2010 13:36    12.88 10 24.00 243 15.9 False x
3/24/2010 10:00    20.41 12 112.00 1670 505.8 False x
3/24/2010 10:15    20.41  119.00 1670 540.9 False x
3/30/2010 13:32    20.01 13 53.00 1560 225.8 False x
4/6/2010 13:28    14.53 21 47.00 447 57.1 False x
4/13/2010 13:23    15.42 21 43.00 585 68.2 False x
4/20/2010 13:28    10.80 18 13.00 79 2.8 False x
4/20/2010 13:41    10.80  16.00 79 3.6 False x
4/27/2010 13:40    17.07 16 77.00 888 185.9 False x
5/4/2010 14:15    25.42 21 83.00 3220 728.0 False x
5/10/2010 13:22    15.74 18 25.00 639 44.5 False x
5/18/2010 12:08    10.69 21 15.00 73 3.0 False x
5/24/2010 13:35    10.61 25 16.00 68 3.1 False x
6/8/2010 14:09    9.53 28 17.00 19 0.9 False x
6/15/2010 13:37    9.76 31 18.00 28 1.4 False x
6/22/2010 11:59    9.71 31 22.00 26 1.6 False x
6/29/2010 12:00    9.24 30 15.00 12 0.5 False x
7/7/2010 13:31    9.04 31 9.00 7.6 0.2 False x
7/16/2010 16:37    9.06 33 8.00 8.1 0.2 False x
7/25/2010 17:38    9.26 32 12.00 12 0.4 False x
8/2/2010 20:18    8.92 31 12.00 5.4 0.2 False x
8/9/2010 17:00    8.80 32 6.00 3.5 0.1 False x
8/17/2010 19:26    9.35 28 13.00 15 0.5 False x
8/22/2010 17:06    9.30 30 12.00 13 0.5 False x
8/27/2010 09:46    9.99 26 8.00 38 0.9 False x
8/30/2010 19:24    8.92 26 9.00 5.4 0.1 False x
9/6/2010 18:00    8.78 26 15.00 3.3 0.1 False x
9/14/2010 17:58    9.20 23 14.00 11 0.4 False x
9/26/2010 18:19    8.86 21 3.00 4.4 0.0 False x
10/5/2010 15:05    8.66 18 3.00 1.9 0.0 False x
10/14/2010 17:30    8.69 19 5.00 2.1 0.0 False x
10/19/2010 11:18    8.83 5.00 3.9 0.1 False x
10/19/2010 17:45    8.75 17 2.00 2.8 0.0 False x
10/26/2010 18:30    8.45 19 3.00 0.32 0.0 False x
11/3/2010 18:02    8.82 13 3.00 3.9 0.0 False x
11/10/2010 16:51    8.65 15 6.00 1.7 0.0 False x
11/29/2010 17:00    14.90 74.00 502 101.5 False x
12/7/2010 16:10    9.53 27.00 19 1.4 False x
12/18/2010 15:00    9.40 16.00 16 0.7 False x
12/26/2010 16:19    9.50 96.00 19 5.0 False x
1/3/2011 16:46    13.30 101.00 289 79.5 False x
1/12/2011 15:17    13.49 108.00 312 91.6 False x
1/21/2011 14:12    13.41 108.00 302 88.2 False x
2/2/2011 12:00    13.39  106.00 300 85.9 False x
8/11/2011 10:25    9.66 27 14.00 24 1.0 False x
8/18/2011 09:55    9.18 26 52.00 11 1.6 False x
8/25/2011 14:50    9.26 30 36.00 12 1.2 False x
9/2/2011 14:37    8.94 31 50.00 5.6 0.8 False x
9/8/2011 08:17    8.82 18 9.00 3.9 0.1 False x
9/15/2011 18:13    8.85 19 46.00 4.3 0.5 False x
9/22/2011 15:30    9.63 19 18.00 23 1.2 False x
9/28/2011 16:09    12.47 18 59.00 201 32.3 False x
10/6/2011 12:55    9.44 18 24.00 17 1.1 False x
10/13/2011 16:02    9.23 19 143.00 12 4.6 False x
10/20/2011 09:27    9.37 12 33.00 15 1.3 False x
10/27/2011 09:57    9.53 12 47.00 19 2.4 False x
11/1/2011 08:29    9.67 10 413.00 25 27.9 False x
11/10/2011 09:26    11.53 10 19.00 124 6.4 False x
11/17/2011 08:41    16.06 10 69.00 695 130.8 False x
11/25/2011 14:15    17.03 10 61.00 880 147.1 False x
12/1/2011 09:08    20.35 59.00 1650 266.2 False x
12/5/2011 16:36    26.39 193.00 3570 1,866.1 False x
12/7/2011 12:27    26.68 60.00 3680 601.2 False x
12/8/2011 09:08    25.69 65.00 3310 582.2 False x
12/12/2011 09:40    16.81 29.00 836 66.5 False x
12/15/2011 10:20    21.31 11 461.00 1910 2,381.1 False x
12/22/2011 14:46    14.74 21.00 478 27.7 False x
12/30/2011 14:26    13.66 11.00 332 10.6 False x
1/5/2012 15:17    11.31 12.00 110 3.8 False x
1/12/2012 11:53    16.61 109.00 797 236.7 False x
1/19/2012 13:42    13.78 46.00 347 43.7 False x
1/25/2012 09:22    12.88 75.00 243 49.7 False x
2/2/2012 10:30    12.83 14.00 238 9.4 False x
2/9/2012 15:44    11.86 11.00 148 4.5 False x
2/16/2012 13:34    14.57 118.00 453 145.2 False x
2/23/2012 13:39    11.77 9.00 141 3.4 False x
3/1/2012 14:35    14.98 12 219.00 515 304.9 False x
3/8/2012 12:25    12.31 11 63.00 186 32.0 False x
3/9/2012 13:54    21.15 11 265.00 1860 1,335.6 False x
3/9/2012 14:00    21.15 11 259.00 1860 1,303.7 False x
3/15/2012 14:48    13.28 17 26.00 287 20.6 False x
3/23/2012 15:21    15.50 17 116.00 598 188.0 False x
3/30/2012 13:22    11.62 20 18.00 130 6.4 False x
4/2/2012 15:59    10.88 24 17.00 83 4.0 False x
4/5/2012 12:06    10.53 21 48.00 64 8.4 False x
4/12/2012 17:32    9.79 17 10.00 30 0.8 False x
4/19/2012 17:00    9.10 19 14.00 8.9 0.4 False x
4/26/2012 12:56    9.50 20 8.00 19 0.4 False x
5/2/2012 16:23    9.49 24 9.00 18 0.5 False x
5/10/2012 15:10    9.14 23 9.00 9.8 0.2 False x
5/12/2012 13:55    8.95 24 15.00 5.9 0.2 False x
5/23/2012 12:07    10.16 22 26.00 46 3.2 False x
5/31/2012 12:39    8.79 25 8.00 3.3 0.1 False x
6/7/2012 12:02    8.93 24 47.00 5.4 0.7 False x
6/14/2012 19:07    8.81 26 20.00 3.7 0.2 False x
6/21/2012 14:03    8.75 29 39.00 2.8 0.3 False x
6/28/2012 12:46    8.62 29 36.00 1.5 0.1 False x
7/4/2012 18:32    8.61 31 31.00 1.4 0.1 False x
7/12/2012 12:55    8.60 29 9.00 1.3 0.0 False x
7/19/2012 17:06    8.61 34 26.00 1.4 0.1 False x
8/16/2012 11:19    8.90 25 12.00 0.2 False x
8/23/2012 16:54    8.68 27 7.00 2.1 0.0 False x
9/6/2012 16:20    9.65 25 21.00 24 1.4 False x
9/14/2012 16:02    8.94 22 9.00 5.6 0.1 False x
9/20/2012 15:09    8.78 21 7.00 3.3 0.1 False x
9/27/2012 09:31    8.56 19 14.00 0.93 0.0 False x
10/4/2012 09:50    8.64 17 9.00 1.7 0.0 False x
10/11/2012 09:55    8.65 10 21.00 1.7 0.1 False x
10/18/2012 09:30    12.46 14 53.00 200 28.6 False x
10/25/2012 09:58    8.64 16 20.00 1.7 0.1 False x
11/11/2012 09:16    8.66 12 19.00 1.9 0.1 False x
11/16/2012 15:59    9.88  14.00 33 1.3 False x
11/24/2012 15:34    8.75 8.00 2.8 0.1 False x
11/29/2012 09:32    8.81 37.00 3.7 0.4 False x
12/6/2012 16:21    10.13 10.00 44 1.2 False x
12/14/2012 12:30    9.78 18.00 29 1.4 False x
12/20/2012 10:20    9.96 11.00 36 1.2 False x
12/27/2012 14:27    9.40 20.00 16 0.9 False x
1/3/2013 10:33    10.54 11.00 65 2.0 False x
1/17/2013 11:54    18.51 93.00 1200 302.2 False x
1/25/2013 17:21    11.08 13.00 107 3.9 False x
1/31/2013 11:54    18.36 155.00 1170 492.0 False x
2/8/2013 16:34    11.54 10.00 141 4.2 False x
2/14/2013 11:43    11.93  25.00 173 11.7 False x
2/22/2013 17:16    19.02 152.00 1320 543.2 False x
2/28/2013 17:18    16.40  47.00 771 98.6 False x
3/7/2013 17:10    11.65 11.00 150 4.8 False x
3/14/2013 17:48    11.92 12.00 173 5.8 False x
3/21/2013 16:19    18.29 89.00 1150 279.2 False x
3/27/2013 10:30    13.88 18.00 383 19.3 False x
3/28/2013 17:24    12.85 20.00 262 14.7 False x
4/4/2013 17:47    11.38 11 20.00 129 7.1 False x
4/11/2013 17:00    21.42 16 356.00 1930 1,858.8 False x
4/19/2013 17:10    24.01 14 369.00 2720 2,714.2 False x
4/25/2013 18:32    15.43 15 29.00 606 49.1 False x
5/1/2013 15:21    14.24 21 20.00 430 24.1 False x
5/6/2013 14:20    19.39 14 56.00 1410 215.4 False x
5/6/2013 14:39    19.37 14 62.00 1400 236.4 False x
5/9/2013 17:25    17.74  44.00 1030 125.0 False x
5/16/2013 17:08    13.39 22 15.00 322 13.2 False x
5/30/2013 13:17    9.43  43.00 16 1.9 False x
7/1/2013 18:30    9.67 24 27.00 25 1.9 False x
7/4/2013 06:44    12.50 23 85.00 226 52.0 False x
7/11/2013 14:20    9.29 30 16.00 12 0.5 False x
7/17/2013 17:45    8.86 31 10.00 3.8 0.1 False x
7/25/2013 13:20    9.26 28 13.00 11 0.4 False x
7/31/2013 15:31    8.94 26 12.00 4.9 0.2 False x
8/7/2013 13:42    9.00  12.00 5.8 0.2 False x
8/7/2013 14:04    8.98  11.00 5.5 0.2 False x
8/15/2013 15:40    10.41 25 43.00 64 7.5 False x
8/23/2013 19:15    8.94 26 15.00 4.9 0.2 False x
8/29/2013 17:16    8.73 30 9.00 2.4 0.1 False x
9/5/2013 08:57    8.52 22 8.00 0.91 0.0 False x
9/11/2013 15:59    8.67 29 14.00 1.9 0.1 False x
9/20/2013 07:48    8.43 22 7.00 0.53 0.0 False x
9/26/2013 12:12    8.31 22 5.00 0.21 0.0 False x
10/3/2013 10:22    8.59  4.00 1.3 0.0 False x
10/3/2013 10:59    8.57 22 6.00 1.2 0.0 False x
10/10/2013 14:00    9.24 19 17.00 11 0.5 False x
10/17/2013 12:41    8.52 17 8.00 0.91 0.0 False x
10/24/2013 18:01    8.71 10 5.00 2.2 0.0 False x
11/1/2013 08:10    12.40 12 20.00 216 11.7 False x
11/14/2013 10:40    9.23 10.00 10 0.3 False x
11/19/2013 11:10    14.37  53.00 448 64.8 False x
11/19/2013 12:01    14.31  78.00 440 93.1 False x
11/21/2013 13:08    11.57 10 20.00 144 7.8 False x
11/29/2013 15:59    9.79 8.00 30 0.7 False x
12/5/2013 11:10    9.44 9.00 16 0.4 False x
12/12/2013 10:43    10.33 29.00 59 4.6 False x
12/20/2013 14:09    12.86 16.00 263 11.6 False x
12/26/2013 14:24    24.74 117.00 2970 938.3 False x
1/2/2014 15:39    12.60 12.00 236 8.2 False x
1/9/2014 11:50    14.17 28.00 421 32.1 False x
1/16/2014 11:20    13.77 43.00 369 43.5 False x
1/24/2014 13:38    10.78 -1 9.00 87 2.2 False x
1/30/2014 10:25    10.29 9.00 57 1.5 False x
2/7/2014 14:39    11.62 15.00 148 6.4 False x
2/14/2014 08:16    10.62 10.00 77 2.2 False x
2/20/2014 07:57    11.96 35.00 176 16.8 False x
2/25/2014 13:09    11.54  19.00 141 7.3 False x
2/25/2014 13:42    11.52  23.00 140 8.7 False x
2/27/2014 15:39    11.03 15.00 104 4.2 False x
3/1/2014 11:57    10.70 16.00 82 3.8 False x
3/6/2014 16:35    10.92 20.00 96 5.4 False x
3/20/2014 19:21    13.79 21.00 371 21.5 False x
3/23/2014 12:08    11.71 10 20.00 155 8.6 False x
3/25/2014 19:03    11.03 19.00 104 5.6 False x
3/27/2014 10:52    10.85 21.00 92 5.4 False x
4/1/2014 13:49    12.83 14 46.00 260 32.8 False x
4/3/2014 10:59    12.61 15 28.00 237 18.5 False x
4/3/2014 11:41    12.52  37.00 228 22.9 False x
4/3/2014 12:25    12.54 17 40.00 230 25.0 False x
4/6/2014 15:26    26.43 15 366.00 3580 3,543.8 False x
4/10/2014 10:00    18.93 12 158.00 1300 558.0 False x
4/15/2014 10:00    18.80 11 151.00 1270 518.4 False x
4/15/2014 11:42    18.38  107.00 1170 339.9 False x
4/15/2014 12:16    18.27 13 103.00 1150 321.3 False x
4/17/2014 17:59    14.43 14 36.00 456 45.0 False x
4/22/2014 09:52    11.57 17 21.00 144 8.2 False x
4/24/2014 12:03    11.09 18 14.00 108 4.2 False x
4/28/2014 16:52    23.05 17 597.00 2410 3,887.3 False x
4/29/2014 14:00    23.17 15 297.00 2450 1,964.8 False x
4/30/2014 12:24    22.15 15 187.00 2140 1,084.7 False x
5/1/2014 12:42    21.87 14 109.00 2060 609.0 False x
5/6/2014 09:51    13.25  21.00 306 17.9 False x
5/6/2014 10:21    13.26 20 30.00 307 25.6 False x
5/6/2014 10:37    13.20  29.00 301 23.9 False x
5/14/2014 16:13    16.82 12 275.00 849 631.4 False x
5/15/2014 10:29    19.16 15 185.00 1350 675.6 False x
5/20/2014 14:12    13.71 19 45.00 361 44.4 False x
5/24/2014 13:00    11.26 24 23.00 120 7.5 False x
5/28/2014 13:51    10.48 25 16.00 69 3.1 False x
6/1/2014 18:45    10.25 25 18.00 54 2.7 False x
6/5/2014 18:43    16.30 23 187.00 753 381.9 False x
6/6/2014 09:28    15.60 23 206.00 633 353.4 False x
6/10/2014 17:09    12.27 22 35.00 204 19.7 False x
6/12/2014 11:15    13.36 22 51.00 319 44.0 False x
6/25/2014 08:53    12.13 25 116.00 191 60.1 False x
6/27/2014 12:23    12.28 25 54.00 205 30.0 False x
7/1/2014 11:42    12.03  58.00 182 28.5 False x
7/4/2014 12:03    12.56 23 81.00 232 51.2 False x
7/11/2014 14:02    9.68 27 26.00 25 1.8 False x
7/15/2014 17:02    9.44 28 20.00 16 0.9 False x
7/17/2014 12:17    9.39 25 15.00 15 0.6 False x
7/24/2014 17:41    9.01 26 15.00 5.9 0.2 False x
7/28/2014 17:28    8.92 27 15.00 4.6 0.2 False x
8/5/2014 12:32    8.15 27 6.00 0.02 0.0 False x
8/5/2014 12:58    8.15 27 6.00 0.02 0.0 False x
8/11/2014 17:39    11.45  111.00 134 40.2 False x
8/14/2014 14:15    9.63 25 44.00 23 2.8 False x
8/22/2014 16:54    9.13 28 21.00 8.2 0.5 False x
8/27/2014 15:47    8.75 32 19.00 2.6 0.1 False x
9/3/2014 13:40    9.24 26 22.00 11 0.7 False x
9/10/2014 06:47    8.68 23 10.00 1.9 0.1 False x
9/19/2014 16:04    8.68 21 10.00 1.9 0.1 False x
9/27/2014 14:31    8.41 22 21.00 0.46 0.0 False x
10/3/2014 17:32    8.37 21 18.00 0.34 0.0 False x
10/10/2014 16:00    8.55 16 11.00 1.1 0.0 False x
10/25/2014 11:23    8.63 15 13.00 1.6 0.1 False x
10/29/2014 16:10    8.48 16 6.00 0.72 0.0 False x
11/25/2014 10:38    11.61 13 28.00 147 11.5 False x
11/25/2014 11:11    11.62 13 20.00 148 8.1 False x
11/25/2014 12:10    11.60 19.00 146 7.8 False x
11/27/2014 11:55    10.59 11.00 75 2.3 False x
12/4/2014 11:56    9.92 8.00 36 0.8 False x
12/14/2014 11:33    9.90 18.00 35 1.7 False x
12/21/2014 16:12    9.73 33.00 27 2.4 False x
12/30/2014 12:31    11.17 9.00 114 2.9 False x
1/3/2015 11:21    20.18 3,455.00 1600 14,927.6 False x
1/4/2015 12:46    22.71 350.00 2310 2,187.2 False x
1/14/2015 14:51    12.18 46.00 196 24.8 False x
1/15/2015 12:43    11.85 16.00 167 7.6 False x
1/21/2015 13:31    10.79 24.00 88 5.9 False x
1/21/2015 14:00    10.79 10.00 88 2.5 False x
1/21/2015 15:18    10.78 13.00 87 3.1 False x
1/24/2015 12:41    10.37 15.00 62 2.6 False x
1/29/2015 13:02    11.65 29.00 150 12.0 False x
2/1/2015 14:59    11.30 43.00 123 14.6 False x
2/2/2015 16:13    14.99 59.00 537 86.9 False x
2/3/2015 11:59    13.70 58.00 360 57.0 False x
2/4/2015 14:16    12.59 23.00 235 14.8 False x
2/13/2015 16:02    10.36 37.00 61 6.1 False x
2/28/2015 17:02    11.33 22.00 125 7.6 False x
3/7/2015 15:31    19.60 105.00 1460 417.8 False x
3/9/2015 11:35    19.98 95.00 1550 398.5 False x
3/10/2015 14:43    23.51 1,069.00 2560 7,394.5 False x
3/11/2015 12:48    22.07 198.00 2120 1,134.5 False x
3/14/2015 18:52    26.94 11 381.00 3770 3,887.2 False x
3/19/2015 12:55    20.13 11 49.00 1700 228.3 False x
3/19/2015 13:48    20.04 11 54.00 1680 247.1 False x
3/20/2015 15:34    18.88 10 41.00 1410 159.8 False x
3/24/2015 10:42    17.07 13 19.00 1080 57.7 False x
3/27/2015 14:21    19.01 145.00 1440 566.5 False x
4/4/2015 12:00    19.21 13 192.00 1470 764.0 False x
4/10/2015 17:53    20.29 17 455.00 1740 2,138.0 False x
4/13/2015 08:13    16.01 18 63.00 920 157.4 False x
4/14/2015 10:47    15.09 17 40.00 755 82.1 False x
4/15/2015 12:21    14.28 18 29.00 555 44.3 False x
4/15/2015 13:00    14.27 18 30.00 553 45.3 False x
4/17/2015 13:56    12.91 19 29.00 328 26.5 False x
4/21/2015 10:47    16.28 16 87.00 961 228.2 False x
4/22/2015 11:58    15.90 16 54.00 902 131.6 False x
4/22/2015 12:39    15.85 16 42.00 894 102.7 False x
4/23/2015 16:53    14.52 16 32.00 613 53.8 False x
5/6/2015 11:13    10.99 22 11.00 112 3.5 False x
5/6/2015 11:58    10.99 22 10.00 112 3.3 False x
5/15/2015 18:28    10.80 20 35.00 96 9.2 False x
5/18/2015 12:49    20.89 20 563.00 1900 2,892.7 False x
5/20/2015 09:50    13.58 19 57.00 431 67.1 False x
6/5/2015 09:57    10.06  62.00 44 7.5 False x
7/6/2015 17:38    13.20 27 26.00 371 26.6 False x
7/13/2015 17:25    22.20 29 72.00 2260 443.9 False x
7/20/2015 17:35    15.45 27 279.00 819 619.1 False x
7/26/2015 15:17    11.74 28 59.00 184 29.7 False x
8/4/2015 18:27    10.26 28 23.00 56 3.6 False x
8/13/2015 11:01    10.01 27 26.00 41 2.9 False x
8/14/2015 17:22    9.77 26 18.00 29 1.4 False x
8/21/2015 18:36    9.38 24 16.00 14 0.6 False x
8/23/2015 13:42    15.06 24 338.00 750 685.5 False x
8/28/2015 14:56    11.04 23 26.00 116 8.2 False x
9/3/2015 12:55    9.60 26 26.00 22 1.6 False x
9/13/2015 19:40    9.47 18 11.00 17 0.5 False x
9/17/2015 15:50    8.83 22 11.00 3.4 0.1 False x
9/23/2015 01:16    8.80  5.00 3.1 0.0 False x
9/27/2015 14:21    8.75 21 10.00 2.6 0.1 False x
10/4/2015 17:45    9.11 17 12.00 7.8 0.3 False x
10/11/2015 13:30    8.71 20 5.00 2.2 0.0 False x
10/15/2015 14:40    8.72 19 4.00 2.3 0.0 False x
10/22/2015 09:34    8.63 15 3.00 1.6 0.0 False x
10/29/2015 10:07    8.83 14 2.00 3.4 0.0 False x
11/3/2015 08:39    8.14 14 4.00 0.02 0.0 False x
11/12/2015 09:23    9.57 12 26.00 21 1.5 False x
11/17/2015 08:34    9.14 12 20.00 8.4 0.5 False x
11/18/2015 12:19    21.30 14 1,118.00 2010 6,071.8 False x
11/19/2015 10:20    18.06 14 212.00 1270 728.2 False x
11/20/2015 16:00    16.44 11 126.00 986 337.9 False x
11/24/2015 12:30    13.61  29.00 435 34.7 False x
11/24/2015 13:18    13.56  22.00 428 26.0 False x
11/28/2015 13:13    19.29 11 386.00 1490 1,553.9 False x
12/3/2015 09:31    16.42 45.00 983 119.5 False x
12/10/2015 11:46    11.09 10.00 121 3.3 False x
12/17/2015 15:55    11.40 18.00 151 7.5 False x
12/25/2015 14:04    16.98 12 103.00 1070 300.3 False x
12/26/2015 14:05    15.63 12 97.00 853 225.1 False x
12/27/2015 12:56    23.56 12 409.00 2670 2,948.8 False x
12/28/2015 15:39    27.71 11 309.00 4100 3,422.5 False x
12/31/2015 15:35    30.52 56.00 5300 807.1 False x
1/4/2016 14:58    21.96 17.00 2190 102.2 False x
1/4/2016 16:05    21.93  19.00 2180 113.5 False x
1/4/2016 16:42    21.82  23.00 2150 134.2 False x
1/6/2016 14:33    20.69  12.00 1850 64.8 False x
1/6/2016 15:07    20.72 17.00 1850 88.9 False x
1/6/2016 15:24    20.68  14.00 1840 69.8 False x
1/14/2016 11:44    15.40 18.00 811 41.3 False x
1/15/2016 15:49    13.17 20.00 366 20.3 False x
1/21/2016 12:03    11.02 17.00 115 5.3 False x
1/28/2016 10:40    11.23 13.00 134 5.0 False x
2/4/2016 11:10    10.75 10.00 92 2.6 False x
2/11/2016 13:10    10.36 18.00 62 3.0 False x
2/18/2016 10:48    14.74 318.00 668 574.3 False x
2/25/2016 12:49    18.46 174.00 1340 633.0 False x
2/26/2016 17:55    17.14 102.00 1100 304.8 False x
3/1/2016 13:00    15.32  39.00 796 85.1 False x
3/1/2016 13:44    15.19  36.00 773 75.7 False x
3/1/2016 15:50    14.29 38.00 557 58.2 False x
3/3/2016 14:19    15.54 54.00 836 123.6 False x
3/10/2016 21:32    22.43 13 745.00 2330 4,689.8 False x
3/17/2016 10:00    14.63 16 43.00 640 75.5 False x
3/29/2016 09:50    12.26 15 21.00 243 13.8 False x
4/7/2016 11:39    15.31 14 25.00 794 55.2 False x
4/15/2016 17:14    12.98 17 19.00 337 17.3 False x
4/21/2016 11:00    18.20 17 942.00 1290 3,281.6 False x
4/29/2016 17:40    14.00 18 49.00 503 66.7 False x
5/12/2016 16:52    20.46 18 593.00 1790 2,866.6 False x
5/19/2016 19:41    14.80 15 50.00 683 92.4 False x
5/23/2016 12:37    11.81 20 23.00 193 12.2 False x
5/25/2016 11:25    11.28 20 31.00 139 11.6 False x
6/1/2016 12:00    17.38 24 45.00 1140 140.5 False x
6/1/2016 12:44    17.36 24 53.00 1140 164.4 False x
6/2/2016 16:58    15.59 23 55.00 844 125.7 False x
6/16/2016 19:13    10.49 23 15.00 72 2.9 False x
6/23/2016 10:56    9.65 29 40.00 24 2.6 False x
6/30/2016 11:45    9.43 27 9.00 16 0.4 False x
7/3/2016 21:36    16.05 25 1,363.00 926 3,408.0 False x
7/4/2016 15:50    24.22 23 428.00 2880 3,330.9 False x
7/5/2016 20:25    20.98 26 173.00 1920 897.9 False x
7/6/2016 10:05    18.21 24 157.00 1290 548.3 False x
7/8/2016 16:43    26.96 26 165.00 3820 1,703.5 False x
7/14/2016 10:42    15.30 26 67.00 793 143.7 False x
7/21/2016 10:59    10.14 28 19.00 49 2.5 False x
8/2/2016 11:40    11.99 28 43.00 212 24.9 False x
8/11/2016 15:08    10.84 28 19.00 99 5.3 False x
8/15/2016 08:31    20.51 24 979.00 1800 4,758.4 False x
8/16/2016 11:56    17.92 23 145.00 1240 486.8 False x
8/18/2016 08:58    19.38 24 91.00 1510 371.1 False x
8/25/2016 10:22    11.66 26 26.00 176 12.7 False x
9/1/2016 09:06    10.19 26 10.00 52 1.5 False x
9/8/2016 10:48    9.53 26 7.00 19 0.4 False x
9/15/2016 08:21    9.50 23 5.00 18 0.3 False x
9/22/2016 16:13    9.50 25 5.00 18 0.3 False x
9/29/2016 10:10    9.21 18 2.00 9.9 0.1 False x
10/6/2016 14:10    9.26 22 4.00 11 0.1 False x
10/13/2016 08:23    9.97 16 4.00 39 0.5 False x
10/20/2016 09:30    9.10 19 12.00 7.6 0.3 False x
10/27/2016 08:15    9.11 15 3.00 7.8 0.1 False x
11/10/2016 11:05    9.12 12 3.00 0.1 False x
11/15/2016 01:12    9.29 13 2.00 12 0.1 False x
11/17/2016 11:00    9.27 13 2.00 11 0.1 False x
11/25/2016 15:30    9.44 10 3.00 16 0.1 False x
12/1/2016 10:27    12.31 34.00 248 23.0 False x
12/7/2016 10:05    10.37 33.00 63 5.7 False x
12/7/2016 10:46    10.39 11.00 64 1.9 False x
12/9/2016 15:29    10.66 12.00 85 2.9 False x
12/16/2016 10:30    9.89 12.00 35 1.2 False x
12/22/2016 12:48    9.69 12.00 25 0.8 False x
12/28/2016 13:32    15.97 170.00 914 422.0 False x
12/29/2016 10:42    14.80 68.00 683 127.1 False x
12/30/2016 09:40    13.52 61.00 420 70.1 False x
1/4/2017 09:34    11.19 16.00 130 5.7 False x
1/12/2017 15:36    10.24 19.00 55 2.9 False x
1/15/2017 14:36    15.96 114.00 911 280.5 False x
1/17/2017 12:03    15.50 83.00 829 185.9 False x
1/19/2017 13:17    13.31 40.00 388 42.7 False x
1/26/2017 14:12    11.12 34.00 124 11.5 False x
2/2/2017 13:35    10.35 9.00 62 1.6 False x
2/9/2017 11:50    11.69 50.00 180 24.7 False x
2/10/2017 13:58    10.34 10.00 61 1.7 False x
2/16/2017 13:45    10.34 13.00 61 2.3 False x
2/23/2017 16:52    10.17 17.00 50 2.3 False x
3/1/2017 11:23    10.51 13 15.00 73 3.1 False x
3/1/2017 11:53    10.53 13 19.00 75 3.9 False x

Data Set Parameters and Explanation

Help with downloading, csv files, printing, and more





Illinois State Water Survey

2204 Griffith Dr
Champaign, IL 61820-7463
217-244-5459
info@isws.illinois.edu

Terms of use. Email the Web Administrator with questions or comments.

© 2017 University of Illinois Board of Trustees. All rights reserved.
For permissions information, contact the Illinois State Water Survey.
Site Map